<?xml version="1.0" encoding="UTF-8" standalone="no" ?>
<gpx xmlns="http://www.topografix.com/GPX/1/1" xmlns:xsi="http://www.w3.org/2001/XMLSchema-instance" xsi:schemaLocation="http://www.topografix.com/GPX/1/1 http://www.topografix.com/GPX/1/1/gpx.xsd" version="1.1" creator="VisuGPX - https://www.visugpx.com">
  <metadata>
    <name>Trie-Chateau - Cergy</name>
    <desc><![CDATA[Trie-Chateau - Cergy reel.
Parcours réalisé le samedi 11 mars 2007. HW]]></desc>
  </metadata>
  <trk>
    <name><![CDATA[ACTIVE LOG- 11 MAR 2017 Trie-Chateau Cergy]]></name>
    <trkseg>
      <trkpt lat="49.2818" lon="1.81884">
        <ele>62</ele>
        <time>2017-03-11T11:25:31Z</time>
      </trkpt>
      <trkpt lat="49.28146" lon="1.81928">
        <ele>59</ele>
        <time>2017-03-11T11:25:38Z</time>
      </trkpt>
      <trkpt lat="49.28114" lon="1.81971">
        <ele>58</ele>
        <time>2017-03-11T11:25:45Z</time>
      </trkpt>
      <trkpt lat="49.2808" lon="1.81999">
        <ele>60</ele>
        <time>2017-03-11T11:25:57Z</time>
      </trkpt>
      <trkpt lat="49.28037" lon="1.81991">
        <ele>64</ele>
        <time>2017-03-11T11:26:41Z</time>
      </trkpt>
      <trkpt lat="49.28023" lon="1.81984">
        <ele>66</ele>
        <time>2017-03-11T11:27:21Z</time>
      </trkpt>
      <trkpt lat="49.28005" lon="1.81979">
        <ele>68</ele>
        <time>2017-03-11T11:28:00Z</time>
      </trkpt>
      <trkpt lat="49.27993" lon="1.81967">
        <ele>70</ele>
        <time>2017-03-11T11:28:32Z</time>
      </trkpt>
      <trkpt lat="49.27967" lon="1.81945">
        <ele>73</ele>
        <time>2017-03-11T11:29:02Z</time>
      </trkpt>
      <trkpt lat="49.27948" lon="1.81912">
        <ele>75</ele>
        <time>2017-03-11T11:29:45Z</time>
      </trkpt>
      <trkpt lat="49.27914" lon="1.81876">
        <ele>80</ele>
        <time>2017-03-11T11:30:27Z</time>
      </trkpt>
      <trkpt lat="49.27894" lon="1.81836">
        <ele>83</ele>
        <time>2017-03-11T11:31:05Z</time>
      </trkpt>
      <trkpt lat="49.27881" lon="1.81837">
        <ele>85</ele>
        <time>2017-03-11T11:31:54Z</time>
      </trkpt>
      <trkpt lat="49.27814" lon="1.81852">
        <ele>95</ele>
        <time>2017-03-11T11:32:23Z</time>
      </trkpt>
      <trkpt lat="49.27816" lon="1.81886">
        <ele>96</ele>
        <time>2017-03-11T11:32:56Z</time>
      </trkpt>
      <trkpt lat="49.27816" lon="1.81941">
        <ele>99</ele>
        <time>2017-03-11T11:33:25Z</time>
      </trkpt>
      <trkpt lat="49.27805" lon="1.81981">
        <ele>103</ele>
        <time>2017-03-11T11:33:56Z</time>
      </trkpt>
      <trkpt lat="49.27774" lon="1.82001">
        <ele>109</ele>
        <time>2017-03-11T11:34:53Z</time>
      </trkpt>
      <trkpt lat="49.2774" lon="1.82023">
        <ele>114</ele>
        <time>2017-03-11T11:35:24Z</time>
      </trkpt>
      <trkpt lat="49.27703" lon="1.82056">
        <ele>118</ele>
        <time>2017-03-11T11:35:53Z</time>
      </trkpt>
      <trkpt lat="49.27694" lon="1.82083">
        <ele>117</ele>
        <time>2017-03-11T11:37:46Z</time>
      </trkpt>
      <trkpt lat="49.27648" lon="1.82071">
        <ele>122</ele>
        <time>2017-03-11T11:38:32Z</time>
      </trkpt>
      <trkpt lat="49.27611" lon="1.82122">
        <ele>124</ele>
        <time>2017-03-11T11:39:02Z</time>
      </trkpt>
      <trkpt lat="49.27597" lon="1.82191">
        <ele>121</ele>
        <time>2017-03-11T11:39:27Z</time>
      </trkpt>
      <trkpt lat="49.27587" lon="1.82256">
        <ele>116</ele>
        <time>2017-03-11T11:39:40Z</time>
      </trkpt>
      <trkpt lat="49.27577" lon="1.82314">
        <ele>112</ele>
        <time>2017-03-11T11:39:52Z</time>
      </trkpt>
      <trkpt lat="49.27568" lon="1.82384">
        <ele>108</ele>
        <time>2017-03-11T11:40:18Z</time>
      </trkpt>
      <trkpt lat="49.27559" lon="1.82455">
        <ele>103</ele>
        <time>2017-03-11T11:40:51Z</time>
      </trkpt>
      <trkpt lat="49.27546" lon="1.82528">
        <ele>101</ele>
        <time>2017-03-11T11:41:31Z</time>
      </trkpt>
      <trkpt lat="49.27538" lon="1.82591">
        <ele>98</ele>
        <time>2017-03-11T11:42:25Z</time>
      </trkpt>
      <trkpt lat="49.27519" lon="1.82653">
        <ele>96</ele>
        <time>2017-03-11T11:43:01Z</time>
      </trkpt>
      <trkpt lat="49.27503" lon="1.82722">
        <ele>94</ele>
        <time>2017-03-11T11:43:49Z</time>
      </trkpt>
      <trkpt lat="49.27485" lon="1.82794">
        <ele>94</ele>
        <time>2017-03-11T11:43:59Z</time>
      </trkpt>
      <trkpt lat="49.27475" lon="1.82856">
        <ele>95</ele>
        <time>2017-03-11T11:44:12Z</time>
      </trkpt>
      <trkpt lat="49.27468" lon="1.82914">
        <ele>97</ele>
        <time>2017-03-11T11:44:23Z</time>
      </trkpt>
      <trkpt lat="49.27461" lon="1.82961">
        <ele>97</ele>
        <time>2017-03-11T11:44:42Z</time>
      </trkpt>
      <trkpt lat="49.27461" lon="1.8301">
        <ele>95</ele>
        <time>2017-03-11T11:45:54Z</time>
      </trkpt>
      <trkpt lat="49.27437" lon="1.83071">
        <ele>98</ele>
        <time>2017-03-11T11:46:31Z</time>
      </trkpt>
      <trkpt lat="49.27425" lon="1.83136">
        <ele>96</ele>
        <time>2017-03-11T11:46:47Z</time>
      </trkpt>
      <trkpt lat="49.27417" lon="1.832">
        <ele>95</ele>
        <time>2017-03-11T11:46:55Z</time>
      </trkpt>
      <trkpt lat="49.27408" lon="1.83264">
        <ele>92</ele>
        <time>2017-03-11T11:47:03Z</time>
      </trkpt>
      <trkpt lat="49.27409" lon="1.83325">
        <ele>90</ele>
        <time>2017-03-11T11:47:19Z</time>
      </trkpt>
      <trkpt lat="49.27411" lon="1.83387">
        <ele>86</ele>
        <time>2017-03-11T11:47:28Z</time>
      </trkpt>
      <trkpt lat="49.27406" lon="1.83454">
        <ele>84</ele>
        <time>2017-03-11T11:47:35Z</time>
      </trkpt>
      <trkpt lat="49.27398" lon="1.83519">
        <ele>82</ele>
        <time>2017-03-11T11:47:43Z</time>
      </trkpt>
      <trkpt lat="49.2739" lon="1.83582">
        <ele>82</ele>
        <time>2017-03-11T11:47:59Z</time>
      </trkpt>
      <trkpt lat="49.27354" lon="1.83581">
        <ele>84</ele>
        <time>2017-03-11T11:48:26Z</time>
      </trkpt>
      <trkpt lat="49.27312" lon="1.83562">
        <ele>89</ele>
        <time>2017-03-11T11:48:57Z</time>
      </trkpt>
      <trkpt lat="49.27244" lon="1.83554">
        <ele>99</ele>
        <time>2017-03-11T11:53:06Z</time>
      </trkpt>
      <trkpt lat="49.27235" lon="1.83622">
        <ele>99</ele>
        <time>2017-03-11T11:53:33Z</time>
      </trkpt>
      <trkpt lat="49.27233" lon="1.83693">
        <ele>99</ele>
        <time>2017-03-11T11:53:52Z</time>
      </trkpt>
      <trkpt lat="49.27228" lon="1.83765">
        <ele>100</ele>
        <time>2017-03-11T11:54:17Z</time>
      </trkpt>
      <trkpt lat="49.27225" lon="1.83833">
        <ele>101</ele>
        <time>2017-03-11T11:54:41Z</time>
      </trkpt>
      <trkpt lat="49.27254" lon="1.83831">
        <ele>97</ele>
        <time>2017-03-11T11:55:20Z</time>
      </trkpt>
      <trkpt lat="49.2724" lon="1.83885">
        <ele>100</ele>
        <time>2017-03-11T11:57:31Z</time>
      </trkpt>
      <trkpt lat="49.27241" lon="1.83949">
        <ele>100</ele>
        <time>2017-03-11T11:57:48Z</time>
      </trkpt>
      <trkpt lat="49.27247" lon="1.84033">
        <ele>99</ele>
        <time>2017-03-11T11:58:25Z</time>
      </trkpt>
      <trkpt lat="49.27264" lon="1.84104">
        <ele>98</ele>
        <time>2017-03-11T11:58:41Z</time>
      </trkpt>
      <trkpt lat="49.27313" lon="1.8421">
        <ele>98</ele>
        <time>2017-03-11T12:00:02Z</time>
      </trkpt>
      <trkpt lat="49.27342" lon="1.84268">
        <ele>98</ele>
        <time>2017-03-11T12:00:24Z</time>
      </trkpt>
      <trkpt lat="49.27381" lon="1.84298">
        <ele>94</ele>
        <time>2017-03-11T12:01:58Z</time>
      </trkpt>
      <trkpt lat="49.2735" lon="1.84291">
        <ele>98</ele>
        <time>2017-03-11T12:02:57Z</time>
      </trkpt>
      <trkpt lat="49.2731" lon="1.84296">
        <ele>105</ele>
        <time>2017-03-11T12:04:00Z</time>
      </trkpt>
      <trkpt lat="49.27249" lon="1.84292">
        <ele>119</ele>
        <time>2017-03-11T12:06:31Z</time>
      </trkpt>
      <trkpt lat="49.27206" lon="1.8426">
        <ele>123</ele>
        <time>2017-03-11T12:07:58Z</time>
      </trkpt>
      <trkpt lat="49.27163" lon="1.84223">
        <ele>131</ele>
        <time>2017-03-11T12:09:44Z</time>
      </trkpt>
      <trkpt lat="49.2712" lon="1.84181">
        <ele>135</ele>
        <time>2017-03-11T12:11:04Z</time>
      </trkpt>
      <trkpt lat="49.27076" lon="1.84155">
        <ele>141</ele>
        <time>2017-03-11T12:11:29Z</time>
      </trkpt>
      <trkpt lat="49.27026" lon="1.84134">
        <ele>143</ele>
        <time>2017-03-11T12:11:53Z</time>
      </trkpt>
      <trkpt lat="49.26987" lon="1.84104">
        <ele>143</ele>
        <time>2017-03-11T12:12:11Z</time>
      </trkpt>
      <trkpt lat="49.2694" lon="1.84071">
        <ele>143</ele>
        <time>2017-03-11T12:12:26Z</time>
      </trkpt>
      <trkpt lat="49.269" lon="1.84038">
        <ele>143</ele>
        <time>2017-03-11T12:12:40Z</time>
      </trkpt>
      <trkpt lat="49.26859" lon="1.83995">
        <ele>143</ele>
        <time>2017-03-11T12:12:51Z</time>
      </trkpt>
      <trkpt lat="49.26816" lon="1.83959">
        <ele>142</ele>
        <time>2017-03-11T12:13:06Z</time>
      </trkpt>
      <trkpt lat="49.26774" lon="1.83922">
        <ele>142</ele>
        <time>2017-03-11T12:13:23Z</time>
      </trkpt>
      <trkpt lat="49.26733" lon="1.8389">
        <ele>141</ele>
        <time>2017-03-11T12:13:37Z</time>
      </trkpt>
      <trkpt lat="49.26694" lon="1.83852">
        <ele>141</ele>
        <time>2017-03-11T12:13:50Z</time>
      </trkpt>
      <trkpt lat="49.26653" lon="1.83821">
        <ele>140</ele>
        <time>2017-03-11T12:14:03Z</time>
      </trkpt>
      <trkpt lat="49.26612" lon="1.83787">
        <ele>139</ele>
        <time>2017-03-11T12:14:19Z</time>
      </trkpt>
      <trkpt lat="49.26569" lon="1.83745">
        <ele>138</ele>
        <time>2017-03-11T12:14:37Z</time>
      </trkpt>
      <trkpt lat="49.2653" lon="1.83711">
        <ele>137</ele>
        <time>2017-03-11T12:14:48Z</time>
      </trkpt>
      <trkpt lat="49.26492" lon="1.83667">
        <ele>137</ele>
        <time>2017-03-11T12:14:58Z</time>
      </trkpt>
      <trkpt lat="49.26461" lon="1.83622">
        <ele>136</ele>
        <time>2017-03-11T12:15:10Z</time>
      </trkpt>
      <trkpt lat="49.26419" lon="1.83588">
        <ele>134</ele>
        <time>2017-03-11T12:15:22Z</time>
      </trkpt>
      <trkpt lat="49.26375" lon="1.83568">
        <ele>132</ele>
        <time>2017-03-11T12:15:32Z</time>
      </trkpt>
      <trkpt lat="49.26334" lon="1.8356">
        <ele>131</ele>
        <time>2017-03-11T12:15:40Z</time>
      </trkpt>
      <trkpt lat="49.26302" lon="1.83521">
        <ele>130</ele>
        <time>2017-03-11T12:15:53Z</time>
      </trkpt>
      <trkpt lat="49.26274" lon="1.83483">
        <ele>129</ele>
        <time>2017-03-11T12:16:05Z</time>
      </trkpt>
      <trkpt lat="49.26237" lon="1.83444">
        <ele>128</ele>
        <time>2017-03-11T12:16:18Z</time>
      </trkpt>
      <trkpt lat="49.26192" lon="1.83395">
        <ele>130</ele>
        <time>2017-03-11T12:16:36Z</time>
      </trkpt>
      <trkpt lat="49.26153" lon="1.83351">
        <ele>131</ele>
        <time>2017-03-11T12:16:54Z</time>
      </trkpt>
      <trkpt lat="49.26121" lon="1.83301">
        <ele>132</ele>
        <time>2017-03-11T12:17:10Z</time>
      </trkpt>
      <trkpt lat="49.26081" lon="1.83273">
        <ele>133</ele>
        <time>2017-03-11T12:17:27Z</time>
      </trkpt>
      <trkpt lat="49.26043" lon="1.83253">
        <ele>135</ele>
        <time>2017-03-11T12:17:44Z</time>
      </trkpt>
      <trkpt lat="49.26002" lon="1.83237">
        <ele>135</ele>
        <time>2017-03-11T12:18:02Z</time>
      </trkpt>
      <trkpt lat="49.25961" lon="1.83229">
        <ele>135</ele>
        <time>2017-03-11T12:18:17Z</time>
      </trkpt>
      <trkpt lat="49.25921" lon="1.83211">
        <ele>134</ele>
        <time>2017-03-11T12:18:30Z</time>
      </trkpt>
      <trkpt lat="49.2588" lon="1.8321">
        <ele>132</ele>
        <time>2017-03-11T12:18:43Z</time>
      </trkpt>
      <trkpt lat="49.25839" lon="1.83212">
        <ele>132</ele>
        <time>2017-03-11T12:18:56Z</time>
      </trkpt>
      <trkpt lat="49.25792" lon="1.83221">
        <ele>130</ele>
        <time>2017-03-11T12:19:07Z</time>
      </trkpt>
      <trkpt lat="49.25738" lon="1.83218">
        <ele>129</ele>
        <time>2017-03-11T12:20:22Z</time>
      </trkpt>
      <trkpt lat="49.25695" lon="1.83207">
        <ele>129</ele>
        <time>2017-03-11T12:20:34Z</time>
      </trkpt>
      <trkpt lat="49.25656" lon="1.83192">
        <ele>129</ele>
        <time>2017-03-11T12:20:42Z</time>
      </trkpt>
      <trkpt lat="49.25615" lon="1.83168">
        <ele>128</ele>
        <time>2017-03-11T12:20:53Z</time>
      </trkpt>
      <trkpt lat="49.25574" lon="1.83142">
        <ele>128</ele>
        <time>2017-03-11T12:21:03Z</time>
      </trkpt>
      <trkpt lat="49.25534" lon="1.83118">
        <ele>128</ele>
        <time>2017-03-11T12:21:14Z</time>
      </trkpt>
      <trkpt lat="49.25497" lon="1.83095">
        <ele>128</ele>
        <time>2017-03-11T12:21:23Z</time>
      </trkpt>
      <trkpt lat="49.25456" lon="1.83086">
        <ele>128</ele>
        <time>2017-03-11T12:21:35Z</time>
      </trkpt>
      <trkpt lat="49.25414" lon="1.83086">
        <ele>128</ele>
        <time>2017-03-11T12:21:45Z</time>
      </trkpt>
      <trkpt lat="49.25371" lon="1.83084">
        <ele>127</ele>
        <time>2017-03-11T12:21:57Z</time>
      </trkpt>
      <trkpt lat="49.2533" lon="1.83071">
        <ele>126</ele>
        <time>2017-03-11T12:22:06Z</time>
      </trkpt>
      <trkpt lat="49.25289" lon="1.83049">
        <ele>125</ele>
        <time>2017-03-11T12:22:15Z</time>
      </trkpt>
      <trkpt lat="49.2525" lon="1.83025">
        <ele>123</ele>
        <time>2017-03-11T12:22:24Z</time>
      </trkpt>
      <trkpt lat="49.25209" lon="1.83008">
        <ele>119</ele>
        <time>2017-03-11T12:23:17Z</time>
      </trkpt>
      <trkpt lat="49.25166" lon="1.82996">
        <ele>115</ele>
        <time>2017-03-11T12:23:26Z</time>
      </trkpt>
      <trkpt lat="49.25124" lon="1.8299">
        <ele>111</ele>
        <time>2017-03-11T12:23:36Z</time>
      </trkpt>
      <trkpt lat="49.25082" lon="1.82986">
        <ele>106</ele>
        <time>2017-03-11T12:23:48Z</time>
      </trkpt>
      <trkpt lat="49.25043" lon="1.82969">
        <ele>102</ele>
        <time>2017-03-11T12:23:57Z</time>
      </trkpt>
      <trkpt lat="49.24999" lon="1.82954">
        <ele>96</ele>
        <time>2017-03-11T12:24:04Z</time>
      </trkpt>
      <trkpt lat="49.24956" lon="1.82955">
        <ele>92</ele>
        <time>2017-03-11T12:24:11Z</time>
      </trkpt>
      <trkpt lat="49.24913" lon="1.8296">
        <ele>88</ele>
        <time>2017-03-11T12:24:17Z</time>
      </trkpt>
      <trkpt lat="49.24867" lon="1.82965">
        <ele>83</ele>
        <time>2017-03-11T12:24:23Z</time>
      </trkpt>
      <trkpt lat="49.24826" lon="1.82967">
        <ele>79</ele>
        <time>2017-03-11T12:24:31Z</time>
      </trkpt>
      <trkpt lat="49.2479" lon="1.82996">
        <ele>76</ele>
        <time>2017-03-11T12:25:36Z</time>
      </trkpt>
      <trkpt lat="49.24755" lon="1.83037">
        <ele>74</ele>
        <time>2017-03-11T12:25:46Z</time>
      </trkpt>
      <trkpt lat="49.24714" lon="1.83057">
        <ele>73</ele>
        <time>2017-03-11T12:25:56Z</time>
      </trkpt>
      <trkpt lat="49.24711" lon="1.83057">
        <ele>74</ele>
        <time>2017-03-11T12:28:49Z</time>
      </trkpt>
      <trkpt lat="49.24691" lon="1.8306">
        <ele>74</ele>
        <time>2017-03-11T12:29:34Z</time>
      </trkpt>
      <trkpt lat="49.24649" lon="1.83054">
        <ele>78</ele>
        <time>2017-03-11T12:30:59Z</time>
      </trkpt>
      <trkpt lat="49.24628" lon="1.83061">
        <ele>80</ele>
        <time>2017-03-11T12:34:02Z</time>
      </trkpt>
      <trkpt lat="49.24616" lon="1.83119">
        <ele>81</ele>
        <time>2017-03-11T12:34:47Z</time>
      </trkpt>
      <trkpt lat="49.24624" lon="1.83179">
        <ele>80</ele>
        <time>2017-03-11T12:35:15Z</time>
      </trkpt>
      <trkpt lat="49.2463" lon="1.83245">
        <ele>79</ele>
        <time>2017-03-11T12:35:28Z</time>
      </trkpt>
      <trkpt lat="49.24621" lon="1.83311">
        <ele>79</ele>
        <time>2017-03-11T12:35:41Z</time>
      </trkpt>
      <trkpt lat="49.24601" lon="1.83366">
        <ele>80</ele>
        <time>2017-03-11T12:35:49Z</time>
      </trkpt>
      <trkpt lat="49.24591" lon="1.83424">
        <ele>81</ele>
        <time>2017-03-11T12:36:03Z</time>
      </trkpt>
      <trkpt lat="49.24596" lon="1.83486">
        <ele>80</ele>
        <time>2017-03-11T12:36:16Z</time>
      </trkpt>
      <trkpt lat="49.24572" lon="1.83595">
        <ele>81</ele>
        <time>2017-03-11T12:38:22Z</time>
      </trkpt>
      <trkpt lat="49.24552" lon="1.83667">
        <ele>81</ele>
        <time>2017-03-11T12:38:43Z</time>
      </trkpt>
      <trkpt lat="49.2454" lon="1.83732">
        <ele>81</ele>
        <time>2017-03-11T12:38:55Z</time>
      </trkpt>
      <trkpt lat="49.24544" lon="1.83794">
        <ele>81</ele>
        <time>2017-03-11T12:39:17Z</time>
      </trkpt>
      <trkpt lat="49.24567" lon="1.83846">
        <ele>81</ele>
        <time>2017-03-11T12:39:34Z</time>
      </trkpt>
      <trkpt lat="49.24586" lon="1.83907">
        <ele>83</ele>
        <time>2017-03-11T12:40:04Z</time>
      </trkpt>
      <trkpt lat="49.24601" lon="1.83962">
        <ele>87</ele>
        <time>2017-03-11T12:40:36Z</time>
      </trkpt>
      <trkpt lat="49.24572" lon="1.84009">
        <ele>93</ele>
        <time>2017-03-11T12:41:12Z</time>
      </trkpt>
      <trkpt lat="49.24562" lon="1.84058">
        <ele>97</ele>
        <time>2017-03-11T12:41:42Z</time>
      </trkpt>
      <trkpt lat="49.24595" lon="1.84097">
        <ele>96</ele>
        <time>2017-03-11T12:41:52Z</time>
      </trkpt>
      <trkpt lat="49.2461" lon="1.84156">
        <ele>95</ele>
        <time>2017-03-11T12:42:00Z</time>
      </trkpt>
      <trkpt lat="49.2461" lon="1.84219">
        <ele>93</ele>
        <time>2017-03-11T12:42:08Z</time>
      </trkpt>
      <trkpt lat="49.24609" lon="1.84282">
        <ele>91</ele>
        <time>2017-03-11T12:42:51Z</time>
      </trkpt>
      <trkpt lat="49.24606" lon="1.84349">
        <ele>87</ele>
        <time>2017-03-11T12:43:05Z</time>
      </trkpt>
      <trkpt lat="49.24597" lon="1.8441">
        <ele>85</ele>
        <time>2017-03-11T12:43:15Z</time>
      </trkpt>
      <trkpt lat="49.24577" lon="1.84468">
        <ele>85</ele>
        <time>2017-03-11T12:43:24Z</time>
      </trkpt>
      <trkpt lat="49.24548" lon="1.84522">
        <ele>84</ele>
        <time>2017-03-11T12:43:33Z</time>
      </trkpt>
      <trkpt lat="49.24514" lon="1.84557">
        <ele>83</ele>
        <time>2017-03-11T12:43:44Z</time>
      </trkpt>
      <trkpt lat="49.24472" lon="1.84583">
        <ele>82</ele>
        <time>2017-03-11T12:43:53Z</time>
      </trkpt>
      <trkpt lat="49.24431" lon="1.84607">
        <ele>83</ele>
        <time>2017-03-11T12:44:00Z</time>
      </trkpt>
      <trkpt lat="49.24395" lon="1.84636">
        <ele>83</ele>
        <time>2017-03-11T12:44:08Z</time>
      </trkpt>
      <trkpt lat="49.24361" lon="1.84663">
        <ele>84</ele>
        <time>2017-03-11T12:44:24Z</time>
      </trkpt>
      <trkpt lat="49.24349" lon="1.84732">
        <ele>83</ele>
        <time>2017-03-11T12:47:08Z</time>
      </trkpt>
      <trkpt lat="49.24352" lon="1.84797">
        <ele>82</ele>
        <time>2017-03-11T12:47:17Z</time>
      </trkpt>
      <trkpt lat="49.24355" lon="1.84862">
        <ele>79</ele>
        <time>2017-03-11T12:47:27Z</time>
      </trkpt>
      <trkpt lat="49.24358" lon="1.84922">
        <ele>78</ele>
        <time>2017-03-11T12:47:41Z</time>
      </trkpt>
      <trkpt lat="49.2436" lon="1.84913">
        <ele>78</ele>
        <time>2017-03-11T12:47:59Z</time>
      </trkpt>
      <trkpt lat="49.24349" lon="1.84889">
        <ele>79</ele>
        <time>2017-03-11T12:49:07Z</time>
      </trkpt>
      <trkpt lat="49.24355" lon="1.84836">
        <ele>80</ele>
        <time>2017-03-11T12:49:30Z</time>
      </trkpt>
      <trkpt lat="49.24351" lon="1.84776">
        <ele>82</ele>
        <time>2017-03-11T12:49:44Z</time>
      </trkpt>
      <trkpt lat="49.24337" lon="1.84746">
        <ele>84</ele>
        <time>2017-03-11T12:50:05Z</time>
      </trkpt>
      <trkpt lat="49.24298" lon="1.84755">
        <ele>86</ele>
        <time>2017-03-11T12:50:24Z</time>
      </trkpt>
      <trkpt lat="49.24277" lon="1.84741">
        <ele>88</ele>
        <time>2017-03-11T12:51:41Z</time>
      </trkpt>
      <trkpt lat="49.24241" lon="1.84767">
        <ele>88</ele>
        <time>2017-03-11T12:51:54Z</time>
      </trkpt>
      <trkpt lat="49.24199" lon="1.84783">
        <ele>87</ele>
        <time>2017-03-11T12:52:07Z</time>
      </trkpt>
      <trkpt lat="49.24159" lon="1.848">
        <ele>85</ele>
        <time>2017-03-11T12:52:15Z</time>
      </trkpt>
      <trkpt lat="49.24123" lon="1.84832">
        <ele>83</ele>
        <time>2017-03-11T12:52:22Z</time>
      </trkpt>
      <trkpt lat="49.24086" lon="1.84866">
        <ele>84</ele>
        <time>2017-03-11T12:52:30Z</time>
      </trkpt>
      <trkpt lat="49.24054" lon="1.84897">
        <ele>86</ele>
        <time>2017-03-11T12:52:41Z</time>
      </trkpt>
      <trkpt lat="49.24023" lon="1.84936">
        <ele>87</ele>
        <time>2017-03-11T12:52:55Z</time>
      </trkpt>
      <trkpt lat="49.23998" lon="1.84985">
        <ele>84</ele>
        <time>2017-03-11T12:53:03Z</time>
      </trkpt>
      <trkpt lat="49.23964" lon="1.85012">
        <ele>83</ele>
        <time>2017-03-11T12:53:11Z</time>
      </trkpt>
      <trkpt lat="49.23918" lon="1.84995">
        <ele>86</ele>
        <time>2017-03-11T12:53:30Z</time>
      </trkpt>
      <trkpt lat="49.23882" lon="1.84997">
        <ele>89</ele>
        <time>2017-03-11T12:53:47Z</time>
      </trkpt>
      <trkpt lat="49.23871" lon="1.85052">
        <ele>89</ele>
        <time>2017-03-11T12:54:01Z</time>
      </trkpt>
      <trkpt lat="49.2386" lon="1.85108">
        <ele>89</ele>
        <time>2017-03-11T12:54:22Z</time>
      </trkpt>
      <trkpt lat="49.2383" lon="1.85145">
        <ele>91</ele>
        <time>2017-03-11T12:54:46Z</time>
      </trkpt>
      <trkpt lat="49.23794" lon="1.85171">
        <ele>92</ele>
        <time>2017-03-11T12:55:03Z</time>
      </trkpt>
      <trkpt lat="49.23766" lon="1.85215">
        <ele>90</ele>
        <time>2017-03-11T12:55:14Z</time>
      </trkpt>
      <trkpt lat="49.2374" lon="1.85262">
        <ele>90</ele>
        <time>2017-03-11T12:55:27Z</time>
      </trkpt>
      <trkpt lat="49.23712" lon="1.85308">
        <ele>90</ele>
        <time>2017-03-11T12:55:41Z</time>
      </trkpt>
      <trkpt lat="49.23685" lon="1.85351">
        <ele>90</ele>
        <time>2017-03-11T12:55:52Z</time>
      </trkpt>
      <trkpt lat="49.23664" lon="1.85404">
        <ele>90</ele>
        <time>2017-03-11T12:56:03Z</time>
      </trkpt>
      <trkpt lat="49.23653" lon="1.8546">
        <ele>90</ele>
        <time>2017-03-11T12:56:14Z</time>
      </trkpt>
      <trkpt lat="49.23644" lon="1.85521">
        <ele>88</ele>
        <time>2017-03-11T12:56:23Z</time>
      </trkpt>
      <trkpt lat="49.23625" lon="1.85579">
        <ele>87</ele>
        <time>2017-03-11T12:56:35Z</time>
      </trkpt>
      <trkpt lat="49.23613" lon="1.85637">
        <ele>87</ele>
        <time>2017-03-11T12:56:48Z</time>
      </trkpt>
      <trkpt lat="49.23596" lon="1.85692">
        <ele>86</ele>
        <time>2017-03-11T12:56:59Z</time>
      </trkpt>
      <trkpt lat="49.23584" lon="1.85751">
        <ele>85</ele>
        <time>2017-03-11T12:57:13Z</time>
      </trkpt>
      <trkpt lat="49.23554" lon="1.85822">
        <ele>85</ele>
        <time>2017-03-11T12:57:50Z</time>
      </trkpt>
      <trkpt lat="49.23504" lon="1.85836">
        <ele>86</ele>
        <time>2017-03-11T12:58:09Z</time>
      </trkpt>
      <trkpt lat="49.23462" lon="1.85811">
        <ele>87</ele>
        <time>2017-03-11T12:58:22Z</time>
      </trkpt>
      <trkpt lat="49.23428" lon="1.85757">
        <ele>88</ele>
        <time>2017-03-11T12:58:39Z</time>
      </trkpt>
      <trkpt lat="49.23401" lon="1.85693">
        <ele>88</ele>
        <time>2017-03-11T12:58:54Z</time>
      </trkpt>
      <trkpt lat="49.23363" lon="1.85692">
        <ele>86</ele>
        <time>2017-03-11T12:59:13Z</time>
      </trkpt>
      <trkpt lat="49.23323" lon="1.8572">
        <ele>86</ele>
        <time>2017-03-11T12:59:30Z</time>
      </trkpt>
      <trkpt lat="49.23301" lon="1.85771">
        <ele>88</ele>
        <time>2017-03-11T12:59:49Z</time>
      </trkpt>
      <trkpt lat="49.23302" lon="1.85837">
        <ele>88</ele>
        <time>2017-03-11T13:00:09Z</time>
      </trkpt>
      <trkpt lat="49.23296" lon="1.85915">
        <ele>89</ele>
        <time>2017-03-11T13:00:34Z</time>
      </trkpt>
      <trkpt lat="49.23267" lon="1.85975">
        <ele>89</ele>
        <time>2017-03-11T13:00:59Z</time>
      </trkpt>
      <trkpt lat="49.23223" lon="1.85961">
        <ele>91</ele>
        <time>2017-03-11T13:01:22Z</time>
      </trkpt>
      <trkpt lat="49.23162" lon="1.85918">
        <ele>91</ele>
        <time>2017-03-11T13:01:54Z</time>
      </trkpt>
      <trkpt lat="49.23156" lon="1.85975">
        <ele>87</ele>
        <time>2017-03-11T13:02:08Z</time>
      </trkpt>
      <trkpt lat="49.23149" lon="1.86039">
        <ele>86</ele>
        <time>2017-03-11T13:02:16Z</time>
      </trkpt>
      <trkpt lat="49.23141" lon="1.86106">
        <ele>85</ele>
        <time>2017-03-11T13:02:30Z</time>
      </trkpt>
      <trkpt lat="49.23144" lon="1.86179">
        <ele>87</ele>
        <time>2017-03-11T13:02:49Z</time>
      </trkpt>
      <trkpt lat="49.23151" lon="1.86245">
        <ele>92</ele>
        <time>2017-03-11T13:03:11Z</time>
      </trkpt>
      <trkpt lat="49.23144" lon="1.8631">
        <ele>93</ele>
        <time>2017-03-11T13:03:31Z</time>
      </trkpt>
      <trkpt lat="49.23126" lon="1.86375">
        <ele>94</ele>
        <time>2017-03-11T13:03:47Z</time>
      </trkpt>
      <trkpt lat="49.23118" lon="1.86442">
        <ele>94</ele>
        <time>2017-03-11T13:04:02Z</time>
      </trkpt>
      <trkpt lat="49.23113" lon="1.86512">
        <ele>94</ele>
        <time>2017-03-11T13:04:17Z</time>
      </trkpt>
      <trkpt lat="49.23111" lon="1.86581">
        <ele>94</ele>
        <time>2017-03-11T13:04:34Z</time>
      </trkpt>
      <trkpt lat="49.23111" lon="1.86653">
        <ele>93</ele>
        <time>2017-03-11T13:04:51Z</time>
      </trkpt>
      <trkpt lat="49.23105" lon="1.86725">
        <ele>93</ele>
        <time>2017-03-11T13:05:09Z</time>
      </trkpt>
      <trkpt lat="49.231" lon="1.86797">
        <ele>93</ele>
        <time>2017-03-11T13:05:24Z</time>
      </trkpt>
      <trkpt lat="49.2309" lon="1.86872">
        <ele>93</ele>
        <time>2017-03-11T13:05:41Z</time>
      </trkpt>
      <trkpt lat="49.23072" lon="1.86937">
        <ele>96</ele>
        <time>2017-03-11T13:05:58Z</time>
      </trkpt>
      <trkpt lat="49.23044" lon="1.87001">
        <ele>95</ele>
        <time>2017-03-11T13:06:14Z</time>
      </trkpt>
      <trkpt lat="49.23018" lon="1.87053">
        <ele>93</ele>
        <time>2017-03-11T13:06:29Z</time>
      </trkpt>
      <trkpt lat="49.22988" lon="1.87102">
        <ele>92</ele>
        <time>2017-03-11T13:06:45Z</time>
      </trkpt>
      <trkpt lat="49.2295" lon="1.87122">
        <ele>95</ele>
        <time>2017-03-11T13:06:57Z</time>
      </trkpt>
      <trkpt lat="49.22913" lon="1.87155">
        <ele>94</ele>
        <time>2017-03-11T13:07:12Z</time>
      </trkpt>
      <trkpt lat="49.22877" lon="1.87184">
        <ele>93</ele>
        <time>2017-03-11T13:07:29Z</time>
      </trkpt>
      <trkpt lat="49.22835" lon="1.87204">
        <ele>90</ele>
        <time>2017-03-11T13:07:45Z</time>
      </trkpt>
      <trkpt lat="49.22793" lon="1.8721">
        <ele>86</ele>
        <time>2017-03-11T13:08:03Z</time>
      </trkpt>
      <trkpt lat="49.22755" lon="1.87187">
        <ele>85</ele>
        <time>2017-03-11T13:08:14Z</time>
      </trkpt>
      <trkpt lat="49.22713" lon="1.87188">
        <ele>85</ele>
        <time>2017-03-11T13:08:28Z</time>
      </trkpt>
      <trkpt lat="49.22672" lon="1.87173">
        <ele>91</ele>
        <time>2017-03-11T13:08:49Z</time>
      </trkpt>
      <trkpt lat="49.22632" lon="1.87088">
        <ele>97</ele>
        <time>2017-03-11T13:10:04Z</time>
      </trkpt>
      <trkpt lat="49.22594" lon="1.87006">
        <ele>104</ele>
        <time>2017-03-11T13:10:35Z</time>
      </trkpt>
      <trkpt lat="49.22576" lon="1.86945">
        <ele>106</ele>
        <time>2017-03-11T13:11:11Z</time>
      </trkpt>
      <trkpt lat="49.22551" lon="1.86904">
        <ele>111</ele>
        <time>2017-03-11T13:11:43Z</time>
      </trkpt>
      <trkpt lat="49.22511" lon="1.869">
        <ele>114</ele>
        <time>2017-03-11T13:12:12Z</time>
      </trkpt>
      <trkpt lat="49.2247" lon="1.86896">
        <ele>116</ele>
        <time>2017-03-11T13:13:21Z</time>
      </trkpt>
      <trkpt lat="49.22429" lon="1.86893">
        <ele>117</ele>
        <time>2017-03-11T13:13:46Z</time>
      </trkpt>
      <trkpt lat="49.22388" lon="1.86885">
        <ele>119</ele>
        <time>2017-03-11T13:14:10Z</time>
      </trkpt>
      <trkpt lat="49.22348" lon="1.86872">
        <ele>121</ele>
        <time>2017-03-11T13:14:35Z</time>
      </trkpt>
      <trkpt lat="49.22324" lon="1.86904">
        <ele>121</ele>
        <time>2017-03-11T13:15:01Z</time>
      </trkpt>
      <trkpt lat="49.22316" lon="1.86967">
        <ele>121</ele>
        <time>2017-03-11T13:15:18Z</time>
      </trkpt>
      <trkpt lat="49.22316" lon="1.8703">
        <ele>120</ele>
        <time>2017-03-11T13:15:33Z</time>
      </trkpt>
      <trkpt lat="49.22314" lon="1.87094">
        <ele>120</ele>
        <time>2017-03-11T13:15:48Z</time>
      </trkpt>
      <trkpt lat="49.22314" lon="1.87156">
        <ele>120</ele>
        <time>2017-03-11T13:16:01Z</time>
      </trkpt>
      <trkpt lat="49.22313" lon="1.87217">
        <ele>120</ele>
        <time>2017-03-11T13:16:15Z</time>
      </trkpt>
      <trkpt lat="49.22312" lon="1.87281">
        <ele>120</ele>
        <time>2017-03-11T13:16:31Z</time>
      </trkpt>
      <trkpt lat="49.22308" lon="1.87344">
        <ele>120</ele>
        <time>2017-03-11T13:16:43Z</time>
      </trkpt>
      <trkpt lat="49.22303" lon="1.87406">
        <ele>121</ele>
        <time>2017-03-11T13:16:54Z</time>
      </trkpt>
      <trkpt lat="49.22301" lon="1.87467">
        <ele>122</ele>
        <time>2017-03-11T13:17:07Z</time>
      </trkpt>
      <trkpt lat="49.22296" lon="1.875">
        <ele>122</ele>
        <time>2017-03-11T13:24:48Z</time>
      </trkpt>
      <trkpt lat="49.22297" lon="1.87455">
        <ele>122</ele>
        <time>2017-03-11T13:50:33Z</time>
      </trkpt>
      <trkpt lat="49.22262" lon="1.87434">
        <ele>123</ele>
        <time>2017-03-11T13:50:49Z</time>
      </trkpt>
      <trkpt lat="49.22226" lon="1.8741">
        <ele>124</ele>
        <time>2017-03-11T13:51:06Z</time>
      </trkpt>
      <trkpt lat="49.2219" lon="1.87382">
        <ele>125</ele>
        <time>2017-03-11T13:51:24Z</time>
      </trkpt>
      <trkpt lat="49.22154" lon="1.87351">
        <ele>126</ele>
        <time>2017-03-11T13:51:40Z</time>
      </trkpt>
      <trkpt lat="49.22123" lon="1.87311">
        <ele>127</ele>
        <time>2017-03-11T13:51:56Z</time>
      </trkpt>
      <trkpt lat="49.22088" lon="1.87284">
        <ele>127</ele>
        <time>2017-03-11T13:52:09Z</time>
      </trkpt>
      <trkpt lat="49.22051" lon="1.87258">
        <ele>128</ele>
        <time>2017-03-11T13:52:21Z</time>
      </trkpt>
      <trkpt lat="49.22016" lon="1.8723">
        <ele>128</ele>
        <time>2017-03-11T13:52:33Z</time>
      </trkpt>
      <trkpt lat="49.21991" lon="1.87181">
        <ele>128</ele>
        <time>2017-03-11T13:52:45Z</time>
      </trkpt>
      <trkpt lat="49.21961" lon="1.87221">
        <ele>129</ele>
        <time>2017-03-11T13:52:56Z</time>
      </trkpt>
      <trkpt lat="49.21929" lon="1.87259">
        <ele>129</ele>
        <time>2017-03-11T13:53:07Z</time>
      </trkpt>
      <trkpt lat="49.21898" lon="1.87303">
        <ele>129</ele>
        <time>2017-03-11T13:53:19Z</time>
      </trkpt>
      <trkpt lat="49.21867" lon="1.87346">
        <ele>130</ele>
        <time>2017-03-11T13:53:44Z</time>
      </trkpt>
      <trkpt lat="49.21834" lon="1.87378">
        <ele>130</ele>
        <time>2017-03-11T13:53:59Z</time>
      </trkpt>
      <trkpt lat="49.218" lon="1.87411">
        <ele>131</ele>
        <time>2017-03-11T13:54:11Z</time>
      </trkpt>
      <trkpt lat="49.21771" lon="1.87454">
        <ele>131</ele>
        <time>2017-03-11T13:54:22Z</time>
      </trkpt>
      <trkpt lat="49.2175" lon="1.87505">
        <ele>131</ele>
        <time>2017-03-11T13:54:33Z</time>
      </trkpt>
      <trkpt lat="49.2174" lon="1.87565">
        <ele>131</ele>
        <time>2017-03-11T13:54:44Z</time>
      </trkpt>
      <trkpt lat="49.21731" lon="1.87629">
        <ele>131</ele>
        <time>2017-03-11T13:54:55Z</time>
      </trkpt>
      <trkpt lat="49.21723" lon="1.87694">
        <ele>131</ele>
        <time>2017-03-11T13:55:05Z</time>
      </trkpt>
      <trkpt lat="49.21713" lon="1.87761">
        <ele>131</ele>
        <time>2017-03-11T13:55:15Z</time>
      </trkpt>
      <trkpt lat="49.21704" lon="1.87821">
        <ele>131</ele>
        <time>2017-03-11T13:55:24Z</time>
      </trkpt>
      <trkpt lat="49.21696" lon="1.87881">
        <ele>131</ele>
        <time>2017-03-11T13:55:34Z</time>
      </trkpt>
      <trkpt lat="49.21688" lon="1.87942">
        <ele>131</ele>
        <time>2017-03-11T13:55:43Z</time>
      </trkpt>
      <trkpt lat="49.21679" lon="1.88004">
        <ele>130</ele>
        <time>2017-03-11T13:55:51Z</time>
      </trkpt>
      <trkpt lat="49.21672" lon="1.88065">
        <ele>130</ele>
        <time>2017-03-11T13:55:59Z</time>
      </trkpt>
      <trkpt lat="49.21662" lon="1.88131">
        <ele>130</ele>
        <time>2017-03-11T13:56:08Z</time>
      </trkpt>
      <trkpt lat="49.21653" lon="1.88193">
        <ele>129</ele>
        <time>2017-03-11T13:56:17Z</time>
      </trkpt>
      <trkpt lat="49.21643" lon="1.88252">
        <ele>129</ele>
        <time>2017-03-11T13:56:27Z</time>
      </trkpt>
      <trkpt lat="49.21637" lon="1.88312">
        <ele>129</ele>
        <time>2017-03-11T13:56:42Z</time>
      </trkpt>
      <trkpt lat="49.21618" lon="1.88365">
        <ele>129</ele>
        <time>2017-03-11T13:56:58Z</time>
      </trkpt>
      <trkpt lat="49.21597" lon="1.88419">
        <ele>129</ele>
        <time>2017-03-11T13:57:10Z</time>
      </trkpt>
      <trkpt lat="49.21578" lon="1.88471">
        <ele>130</ele>
        <time>2017-03-11T13:57:26Z</time>
      </trkpt>
      <trkpt lat="49.21558" lon="1.88524">
        <ele>130</ele>
        <time>2017-03-11T13:57:40Z</time>
      </trkpt>
      <trkpt lat="49.21538" lon="1.88576">
        <ele>130</ele>
        <time>2017-03-11T13:57:57Z</time>
      </trkpt>
      <trkpt lat="49.21518" lon="1.88627">
        <ele>131</ele>
        <time>2017-03-11T13:58:11Z</time>
      </trkpt>
      <trkpt lat="49.21495" lon="1.88675">
        <ele>131</ele>
        <time>2017-03-11T13:58:28Z</time>
      </trkpt>
      <trkpt lat="49.21475" lon="1.88724">
        <ele>131</ele>
        <time>2017-03-11T13:58:41Z</time>
      </trkpt>
      <trkpt lat="49.21455" lon="1.88779">
        <ele>131</ele>
        <time>2017-03-11T13:58:57Z</time>
      </trkpt>
      <trkpt lat="49.21434" lon="1.88833">
        <ele>132</ele>
        <time>2017-03-11T13:59:15Z</time>
      </trkpt>
      <trkpt lat="49.21412" lon="1.88888">
        <ele>132</ele>
        <time>2017-03-11T13:59:35Z</time>
      </trkpt>
      <trkpt lat="49.21394" lon="1.88944">
        <ele>132</ele>
        <time>2017-03-11T13:59:51Z</time>
      </trkpt>
      <trkpt lat="49.21371" lon="1.88999">
        <ele>132</ele>
        <time>2017-03-11T14:00:08Z</time>
      </trkpt>
      <trkpt lat="49.21346" lon="1.89056">
        <ele>132</ele>
        <time>2017-03-11T14:00:23Z</time>
      </trkpt>
      <trkpt lat="49.21325" lon="1.89112">
        <ele>132</ele>
        <time>2017-03-11T14:00:41Z</time>
      </trkpt>
      <trkpt lat="49.21308" lon="1.89171">
        <ele>131</ele>
        <time>2017-03-11T14:00:58Z</time>
      </trkpt>
      <trkpt lat="49.21288" lon="1.89229">
        <ele>132</ele>
        <time>2017-03-11T14:01:13Z</time>
      </trkpt>
      <trkpt lat="49.21267" lon="1.89296">
        <ele>132</ele>
        <time>2017-03-11T14:01:35Z</time>
      </trkpt>
      <trkpt lat="49.21249" lon="1.89355">
        <ele>131</ele>
        <time>2017-03-11T14:01:47Z</time>
      </trkpt>
      <trkpt lat="49.21231" lon="1.89416">
        <ele>130</ele>
        <time>2017-03-11T14:01:57Z</time>
      </trkpt>
      <trkpt lat="49.21214" lon="1.89476">
        <ele>129</ele>
        <time>2017-03-11T14:02:07Z</time>
      </trkpt>
      <trkpt lat="49.21195" lon="1.89532">
        <ele>128</ele>
        <time>2017-03-11T14:02:20Z</time>
      </trkpt>
      <trkpt lat="49.21175" lon="1.89591">
        <ele>128</ele>
        <time>2017-03-11T14:02:31Z</time>
      </trkpt>
      <trkpt lat="49.21157" lon="1.89648">
        <ele>128</ele>
        <time>2017-03-11T14:02:41Z</time>
      </trkpt>
      <trkpt lat="49.21137" lon="1.89704">
        <ele>130</ele>
        <time>2017-03-11T14:02:58Z</time>
      </trkpt>
      <trkpt lat="49.2112" lon="1.89761">
        <ele>131</ele>
        <time>2017-03-11T14:03:17Z</time>
      </trkpt>
      <trkpt lat="49.211" lon="1.89819">
        <ele>131</ele>
        <time>2017-03-11T14:03:35Z</time>
      </trkpt>
      <trkpt lat="49.21077" lon="1.89874">
        <ele>131</ele>
        <time>2017-03-11T14:03:53Z</time>
      </trkpt>
      <trkpt lat="49.21034" lon="1.89882">
        <ele>131</ele>
        <time>2017-03-11T14:04:04Z</time>
      </trkpt>
      <trkpt lat="49.20994" lon="1.89889">
        <ele>130</ele>
        <time>2017-03-11T14:04:14Z</time>
      </trkpt>
      <trkpt lat="49.20952" lon="1.89886">
        <ele>129</ele>
        <time>2017-03-11T14:04:22Z</time>
      </trkpt>
      <trkpt lat="49.20909" lon="1.89874">
        <ele>128</ele>
        <time>2017-03-11T14:04:29Z</time>
      </trkpt>
      <trkpt lat="49.20868" lon="1.89861">
        <ele>127</ele>
        <time>2017-03-11T14:04:37Z</time>
      </trkpt>
      <trkpt lat="49.20839" lon="1.89878">
        <ele>127</ele>
        <time>2017-03-11T14:05:50Z</time>
      </trkpt>
      <trkpt lat="49.20803" lon="1.89899">
        <ele>126</ele>
        <time>2017-03-11T14:05:58Z</time>
      </trkpt>
      <trkpt lat="49.20761" lon="1.89925">
        <ele>126</ele>
        <time>2017-03-11T14:06:05Z</time>
      </trkpt>
      <trkpt lat="49.20723" lon="1.89948">
        <ele>125</ele>
        <time>2017-03-11T14:06:11Z</time>
      </trkpt>
      <trkpt lat="49.20683" lon="1.89976">
        <ele>124</ele>
        <time>2017-03-11T14:06:18Z</time>
      </trkpt>
      <trkpt lat="49.20644" lon="1.90002">
        <ele>123</ele>
        <time>2017-03-11T14:06:26Z</time>
      </trkpt>
      <trkpt lat="49.20606" lon="1.9002">
        <ele>122</ele>
        <time>2017-03-11T14:06:35Z</time>
      </trkpt>
      <trkpt lat="49.20566" lon="1.90022">
        <ele>121</ele>
        <time>2017-03-11T14:06:45Z</time>
      </trkpt>
      <trkpt lat="49.20526" lon="1.90019">
        <ele>120</ele>
        <time>2017-03-11T14:06:56Z</time>
      </trkpt>
      <trkpt lat="49.20483" lon="1.90017">
        <ele>119</ele>
        <time>2017-03-11T14:07:07Z</time>
      </trkpt>
      <trkpt lat="49.20439" lon="1.90016">
        <ele>119</ele>
        <time>2017-03-11T14:07:17Z</time>
      </trkpt>
      <trkpt lat="49.20398" lon="1.90013">
        <ele>118</ele>
        <time>2017-03-11T14:07:27Z</time>
      </trkpt>
      <trkpt lat="49.20358" lon="1.9001">
        <ele>118</ele>
        <time>2017-03-11T14:07:37Z</time>
      </trkpt>
      <trkpt lat="49.20341" lon="1.90041">
        <ele>118</ele>
        <time>2017-03-11T14:07:50Z</time>
      </trkpt>
      <trkpt lat="49.20363" lon="1.90092">
        <ele>117</ele>
        <time>2017-03-11T14:08:05Z</time>
      </trkpt>
      <trkpt lat="49.20388" lon="1.90147">
        <ele>117</ele>
        <time>2017-03-11T14:08:15Z</time>
      </trkpt>
      <trkpt lat="49.2041" lon="1.90199">
        <ele>117</ele>
        <time>2017-03-11T14:08:27Z</time>
      </trkpt>
      <trkpt lat="49.20394" lon="1.90164">
        <ele>117</ele>
        <time>2017-03-11T14:08:56Z</time>
      </trkpt>
      <trkpt lat="49.20371" lon="1.90114">
        <ele>117</ele>
        <time>2017-03-11T14:09:07Z</time>
      </trkpt>
      <trkpt lat="49.20349" lon="1.90062">
        <ele>118</ele>
        <time>2017-03-11T14:09:19Z</time>
      </trkpt>
      <trkpt lat="49.20321" lon="1.90027">
        <ele>117</ele>
        <time>2017-03-11T14:09:31Z</time>
      </trkpt>
      <trkpt lat="49.20294" lon="1.90072">
        <ele>116</ele>
        <time>2017-03-11T14:09:41Z</time>
      </trkpt>
      <trkpt lat="49.20269" lon="1.90122">
        <ele>116</ele>
        <time>2017-03-11T14:09:49Z</time>
      </trkpt>
      <trkpt lat="49.20246" lon="1.90179">
        <ele>115</ele>
        <time>2017-03-11T14:09:57Z</time>
      </trkpt>
      <trkpt lat="49.20228" lon="1.90237">
        <ele>115</ele>
        <time>2017-03-11T14:10:05Z</time>
      </trkpt>
      <trkpt lat="49.2021" lon="1.90293">
        <ele>114</ele>
        <time>2017-03-11T14:10:13Z</time>
      </trkpt>
      <trkpt lat="49.20189" lon="1.90355">
        <ele>113</ele>
        <time>2017-03-11T14:10:21Z</time>
      </trkpt>
      <trkpt lat="49.20172" lon="1.9041">
        <ele>112</ele>
        <time>2017-03-11T14:10:27Z</time>
      </trkpt>
      <trkpt lat="49.20151" lon="1.90467">
        <ele>111</ele>
        <time>2017-03-11T14:10:33Z</time>
      </trkpt>
      <trkpt lat="49.20131" lon="1.90519">
        <ele>111</ele>
        <time>2017-03-11T14:10:39Z</time>
      </trkpt>
      <trkpt lat="49.2011" lon="1.90573">
        <ele>110</ele>
        <time>2017-03-11T14:10:46Z</time>
      </trkpt>
      <trkpt lat="49.20089" lon="1.90626">
        <ele>110</ele>
        <time>2017-03-11T14:10:54Z</time>
      </trkpt>
      <trkpt lat="49.20068" lon="1.90682">
        <ele>109</ele>
        <time>2017-03-11T14:11:02Z</time>
      </trkpt>
      <trkpt lat="49.20047" lon="1.90741">
        <ele>109</ele>
        <time>2017-03-11T14:11:10Z</time>
      </trkpt>
      <trkpt lat="49.20027" lon="1.90796">
        <ele>109</ele>
        <time>2017-03-11T14:11:18Z</time>
      </trkpt>
      <trkpt lat="49.20011" lon="1.90856">
        <ele>110</ele>
        <time>2017-03-11T14:11:26Z</time>
      </trkpt>
      <trkpt lat="49.19999" lon="1.90919">
        <ele>111</ele>
        <time>2017-03-11T14:11:36Z</time>
      </trkpt>
      <trkpt lat="49.1999" lon="1.90977">
        <ele>111</ele>
        <time>2017-03-11T14:11:46Z</time>
      </trkpt>
      <trkpt lat="49.19979" lon="1.9104">
        <ele>111</ele>
        <time>2017-03-11T14:11:58Z</time>
      </trkpt>
      <trkpt lat="49.19969" lon="1.91102">
        <ele>111</ele>
        <time>2017-03-11T14:12:09Z</time>
      </trkpt>
      <trkpt lat="49.1996" lon="1.91165">
        <ele>111</ele>
        <time>2017-03-11T14:12:19Z</time>
      </trkpt>
      <trkpt lat="49.19954" lon="1.91231">
        <ele>111</ele>
        <time>2017-03-11T14:12:28Z</time>
      </trkpt>
      <trkpt lat="49.19956" lon="1.91293">
        <ele>111</ele>
        <time>2017-03-11T14:12:38Z</time>
      </trkpt>
      <trkpt lat="49.19962" lon="1.91357">
        <ele>111</ele>
        <time>2017-03-11T14:12:48Z</time>
      </trkpt>
      <trkpt lat="49.1997" lon="1.9142">
        <ele>111</ele>
        <time>2017-03-11T14:12:58Z</time>
      </trkpt>
      <trkpt lat="49.19979" lon="1.91485">
        <ele>111</ele>
        <time>2017-03-11T14:13:08Z</time>
      </trkpt>
      <trkpt lat="49.19987" lon="1.91547">
        <ele>110</ele>
        <time>2017-03-11T14:13:16Z</time>
      </trkpt>
      <trkpt lat="49.19993" lon="1.91608">
        <ele>109</ele>
        <time>2017-03-11T14:13:23Z</time>
      </trkpt>
      <trkpt lat="49.19997" lon="1.91671">
        <ele>108</ele>
        <time>2017-03-11T14:13:29Z</time>
      </trkpt>
      <trkpt lat="49.19998" lon="1.91734">
        <ele>107</ele>
        <time>2017-03-11T14:13:35Z</time>
      </trkpt>
      <trkpt lat="49.20003" lon="1.91799">
        <ele>106</ele>
        <time>2017-03-11T14:13:42Z</time>
      </trkpt>
      <trkpt lat="49.20024" lon="1.9185">
        <ele>106</ele>
        <time>2017-03-11T14:13:50Z</time>
      </trkpt>
      <trkpt lat="49.20061" lon="1.91877">
        <ele>107</ele>
        <time>2017-03-11T14:14:00Z</time>
      </trkpt>
      <trkpt lat="49.201" lon="1.91898">
        <ele>107</ele>
        <time>2017-03-11T14:14:10Z</time>
      </trkpt>
      <trkpt lat="49.20137" lon="1.91919">
        <ele>108</ele>
        <time>2017-03-11T14:14:19Z</time>
      </trkpt>
      <trkpt lat="49.20176" lon="1.91941">
        <ele>108</ele>
        <time>2017-03-11T14:14:29Z</time>
      </trkpt>
      <trkpt lat="49.20218" lon="1.91963">
        <ele>108</ele>
        <time>2017-03-11T14:14:39Z</time>
      </trkpt>
      <trkpt lat="49.20257" lon="1.91986">
        <ele>108</ele>
        <time>2017-03-11T14:14:49Z</time>
      </trkpt>
      <trkpt lat="49.20295" lon="1.92005">
        <ele>108</ele>
        <time>2017-03-11T14:14:59Z</time>
      </trkpt>
      <trkpt lat="49.20332" lon="1.92028">
        <ele>108</ele>
        <time>2017-03-11T14:15:08Z</time>
      </trkpt>
      <trkpt lat="49.20349" lon="1.92082">
        <ele>109</ele>
        <time>2017-03-11T14:15:22Z</time>
      </trkpt>
      <trkpt lat="49.20347" lon="1.92145">
        <ele>111</ele>
        <time>2017-03-11T14:15:38Z</time>
      </trkpt>
      <trkpt lat="49.20358" lon="1.92206">
        <ele>113</ele>
        <time>2017-03-11T14:15:52Z</time>
      </trkpt>
      <trkpt lat="49.20368" lon="1.92267">
        <ele>114</ele>
        <time>2017-03-11T14:16:05Z</time>
      </trkpt>
      <trkpt lat="49.20364" lon="1.92326">
        <ele>116</ele>
        <time>2017-03-11T14:16:21Z</time>
      </trkpt>
      <trkpt lat="49.20354" lon="1.92386">
        <ele>117</ele>
        <time>2017-03-11T14:16:38Z</time>
      </trkpt>
      <trkpt lat="49.20344" lon="1.92444">
        <ele>118</ele>
        <time>2017-03-11T14:16:55Z</time>
      </trkpt>
      <trkpt lat="49.20313" lon="1.92491">
        <ele>119</ele>
        <time>2017-03-11T14:17:14Z</time>
      </trkpt>
      <trkpt lat="49.20281" lon="1.92532">
        <ele>121</ele>
        <time>2017-03-11T14:17:35Z</time>
      </trkpt>
      <trkpt lat="49.2025" lon="1.92569">
        <ele>121</ele>
        <time>2017-03-11T14:17:53Z</time>
      </trkpt>
      <trkpt lat="49.20214" lon="1.92604">
        <ele>121</ele>
        <time>2017-03-11T14:18:09Z</time>
      </trkpt>
      <trkpt lat="49.20179" lon="1.92637">
        <ele>121</ele>
        <time>2017-03-11T14:18:22Z</time>
      </trkpt>
      <trkpt lat="49.20143" lon="1.92673">
        <ele>121</ele>
        <time>2017-03-11T14:18:34Z</time>
      </trkpt>
      <trkpt lat="49.20108" lon="1.92711">
        <ele>122</ele>
        <time>2017-03-11T14:18:45Z</time>
      </trkpt>
      <trkpt lat="49.20071" lon="1.92749">
        <ele>122</ele>
        <time>2017-03-11T14:18:55Z</time>
      </trkpt>
      <trkpt lat="49.20037" lon="1.92788">
        <ele>122</ele>
        <time>2017-03-11T14:19:03Z</time>
      </trkpt>
      <trkpt lat="49.20004" lon="1.92824">
        <ele>122</ele>
        <time>2017-03-11T14:19:12Z</time>
      </trkpt>
      <trkpt lat="49.19968" lon="1.92859">
        <ele>122</ele>
        <time>2017-03-11T14:19:21Z</time>
      </trkpt>
      <trkpt lat="49.1993" lon="1.92897">
        <ele>122</ele>
        <time>2017-03-11T14:19:29Z</time>
      </trkpt>
      <trkpt lat="49.19895" lon="1.92932">
        <ele>123</ele>
        <time>2017-03-11T14:19:37Z</time>
      </trkpt>
      <trkpt lat="49.19863" lon="1.92967">
        <ele>123</ele>
        <time>2017-03-11T14:19:47Z</time>
      </trkpt>
      <trkpt lat="49.19829" lon="1.93009">
        <ele>123</ele>
        <time>2017-03-11T14:19:58Z</time>
      </trkpt>
      <trkpt lat="49.19838" lon="1.93064">
        <ele>123</ele>
        <time>2017-03-11T14:20:11Z</time>
      </trkpt>
      <trkpt lat="49.19825" lon="1.93121">
        <ele>123</ele>
        <time>2017-03-11T14:20:22Z</time>
      </trkpt>
      <trkpt lat="49.19807" lon="1.93177">
        <ele>123</ele>
        <time>2017-03-11T14:20:33Z</time>
      </trkpt>
      <trkpt lat="49.19791" lon="1.93235">
        <ele>123</ele>
        <time>2017-03-11T14:20:44Z</time>
      </trkpt>
      <trkpt lat="49.19773" lon="1.93288">
        <ele>122</ele>
        <time>2017-03-11T14:20:56Z</time>
      </trkpt>
      <trkpt lat="49.19758" lon="1.93347">
        <ele>121</ele>
        <time>2017-03-11T14:21:06Z</time>
      </trkpt>
      <trkpt lat="49.19744" lon="1.9341">
        <ele>118</ele>
        <time>2017-03-11T14:21:14Z</time>
      </trkpt>
      <trkpt lat="49.19732" lon="1.93474">
        <ele>115</ele>
        <time>2017-03-11T14:21:21Z</time>
      </trkpt>
      <trkpt lat="49.19714" lon="1.93545">
        <ele>112</ele>
        <time>2017-03-11T14:21:27Z</time>
      </trkpt>
      <trkpt lat="49.19695" lon="1.93609">
        <ele>110</ele>
        <time>2017-03-11T14:21:32Z</time>
      </trkpt>
      <trkpt lat="49.19671" lon="1.93667">
        <ele>108</ele>
        <time>2017-03-11T14:21:37Z</time>
      </trkpt>
      <trkpt lat="49.19647" lon="1.9372">
        <ele>107</ele>
        <time>2017-03-11T14:21:42Z</time>
      </trkpt>
      <trkpt lat="49.19624" lon="1.9377">
        <ele>106</ele>
        <time>2017-03-11T14:21:47Z</time>
      </trkpt>
      <trkpt lat="49.19602" lon="1.93829">
        <ele>104</ele>
        <time>2017-03-11T14:21:53Z</time>
      </trkpt>
      <trkpt lat="49.19584" lon="1.93886">
        <ele>103</ele>
        <time>2017-03-11T14:21:59Z</time>
      </trkpt>
      <trkpt lat="49.19563" lon="1.93943">
        <ele>103</ele>
        <time>2017-03-11T14:22:06Z</time>
      </trkpt>
      <trkpt lat="49.19536" lon="1.93988">
        <ele>103</ele>
        <time>2017-03-11T14:22:13Z</time>
      </trkpt>
      <trkpt lat="49.19507" lon="1.94038">
        <ele>103</ele>
        <time>2017-03-11T14:22:22Z</time>
      </trkpt>
      <trkpt lat="49.19475" lon="1.94086">
        <ele>102</ele>
        <time>2017-03-11T14:22:30Z</time>
      </trkpt>
      <trkpt lat="49.19442" lon="1.94127">
        <ele>102</ele>
        <time>2017-03-11T14:22:37Z</time>
      </trkpt>
      <trkpt lat="49.19409" lon="1.94162">
        <ele>101</ele>
        <time>2017-03-11T14:22:45Z</time>
      </trkpt>
      <trkpt lat="49.1937" lon="1.94194">
        <ele>102</ele>
        <time>2017-03-11T14:22:54Z</time>
      </trkpt>
      <trkpt lat="49.19331" lon="1.9422">
        <ele>102</ele>
        <time>2017-03-11T14:23:03Z</time>
      </trkpt>
      <trkpt lat="49.19294" lon="1.94247">
        <ele>103</ele>
        <time>2017-03-11T14:23:12Z</time>
      </trkpt>
      <trkpt lat="49.19257" lon="1.94273">
        <ele>104</ele>
        <time>2017-03-11T14:23:23Z</time>
      </trkpt>
      <trkpt lat="49.19219" lon="1.94297">
        <ele>105</ele>
        <time>2017-03-11T14:23:36Z</time>
      </trkpt>
      <trkpt lat="49.19181" lon="1.9432">
        <ele>106</ele>
        <time>2017-03-11T14:23:48Z</time>
      </trkpt>
      <trkpt lat="49.19141" lon="1.94343">
        <ele>107</ele>
        <time>2017-03-11T14:23:58Z</time>
      </trkpt>
      <trkpt lat="49.19104" lon="1.94365">
        <ele>108</ele>
        <time>2017-03-11T14:24:11Z</time>
      </trkpt>
      <trkpt lat="49.19065" lon="1.94389">
        <ele>109</ele>
        <time>2017-03-11T14:24:27Z</time>
      </trkpt>
      <trkpt lat="49.19028" lon="1.94411">
        <ele>111</ele>
        <time>2017-03-11T14:24:41Z</time>
      </trkpt>
      <trkpt lat="49.18988" lon="1.9443">
        <ele>112</ele>
        <time>2017-03-11T14:24:55Z</time>
      </trkpt>
      <trkpt lat="49.18948" lon="1.94445">
        <ele>114</ele>
        <time>2017-03-11T14:25:08Z</time>
      </trkpt>
      <trkpt lat="49.18907" lon="1.9446">
        <ele>115</ele>
        <time>2017-03-11T14:25:23Z</time>
      </trkpt>
      <trkpt lat="49.18867" lon="1.94477">
        <ele>116</ele>
        <time>2017-03-11T14:25:38Z</time>
      </trkpt>
      <trkpt lat="49.18826" lon="1.94492">
        <ele>117</ele>
        <time>2017-03-11T14:25:52Z</time>
      </trkpt>
      <trkpt lat="49.18785" lon="1.9451">
        <ele>117</ele>
        <time>2017-03-11T14:26:04Z</time>
      </trkpt>
      <trkpt lat="49.18747" lon="1.94529">
        <ele>117</ele>
        <time>2017-03-11T14:26:14Z</time>
      </trkpt>
      <trkpt lat="49.18708" lon="1.94557">
        <ele>117</ele>
        <time>2017-03-11T14:26:24Z</time>
      </trkpt>
      <trkpt lat="49.18672" lon="1.94585">
        <ele>115</ele>
        <time>2017-03-11T14:26:32Z</time>
      </trkpt>
      <trkpt lat="49.18635" lon="1.94617">
        <ele>114</ele>
        <time>2017-03-11T14:26:40Z</time>
      </trkpt>
      <trkpt lat="49.18604" lon="1.94657">
        <ele>113</ele>
        <time>2017-03-11T14:26:49Z</time>
      </trkpt>
      <trkpt lat="49.18571" lon="1.94694">
        <ele>111</ele>
        <time>2017-03-11T14:27:04Z</time>
      </trkpt>
      <trkpt lat="49.1853" lon="1.94724">
        <ele>109</ele>
        <time>2017-03-11T14:27:13Z</time>
      </trkpt>
      <trkpt lat="49.18489" lon="1.94759">
        <ele>106</ele>
        <time>2017-03-11T14:27:20Z</time>
      </trkpt>
      <trkpt lat="49.1845" lon="1.94797">
        <ele>104</ele>
        <time>2017-03-11T14:27:26Z</time>
      </trkpt>
      <trkpt lat="49.18409" lon="1.94826">
        <ele>102</ele>
        <time>2017-03-11T14:27:32Z</time>
      </trkpt>
      <trkpt lat="49.18366" lon="1.94852">
        <ele>100</ele>
        <time>2017-03-11T14:27:38Z</time>
      </trkpt>
      <trkpt lat="49.18328" lon="1.94879">
        <ele>98</ele>
        <time>2017-03-11T14:27:43Z</time>
      </trkpt>
      <trkpt lat="49.18298" lon="1.94924">
        <ele>95</ele>
        <time>2017-03-11T14:27:48Z</time>
      </trkpt>
      <trkpt lat="49.18287" lon="1.94984">
        <ele>93</ele>
        <time>2017-03-11T14:27:53Z</time>
      </trkpt>
      <trkpt lat="49.18301" lon="1.95047">
        <ele>90</ele>
        <time>2017-03-11T14:27:58Z</time>
      </trkpt>
      <trkpt lat="49.18322" lon="1.95115">
        <ele>86</ele>
        <time>2017-03-11T14:28:03Z</time>
      </trkpt>
      <trkpt lat="49.18339" lon="1.95172">
        <ele>84</ele>
        <time>2017-03-11T14:28:09Z</time>
      </trkpt>
      <trkpt lat="49.18319" lon="1.95221">
        <ele>82</ele>
        <time>2017-03-11T14:28:15Z</time>
      </trkpt>
      <trkpt lat="49.18281" lon="1.95234">
        <ele>86</ele>
        <time>2017-03-11T14:28:22Z</time>
      </trkpt>
      <trkpt lat="49.18243" lon="1.95208">
        <ele>88</ele>
        <time>2017-03-11T14:28:38Z</time>
      </trkpt>
      <trkpt lat="49.18205" lon="1.95184">
        <ele>90</ele>
        <time>2017-03-11T14:29:05Z</time>
      </trkpt>
      <trkpt lat="49.18164" lon="1.9515">
        <ele>92</ele>
        <time>2017-03-11T14:29:32Z</time>
      </trkpt>
      <trkpt lat="49.18132" lon="1.95113">
        <ele>93</ele>
        <time>2017-03-11T14:29:57Z</time>
      </trkpt>
      <trkpt lat="49.18103" lon="1.95068">
        <ele>93</ele>
        <time>2017-03-11T14:30:20Z</time>
      </trkpt>
      <trkpt lat="49.18085" lon="1.94997">
        <ele>93</ele>
        <time>2017-03-11T14:30:45Z</time>
      </trkpt>
      <trkpt lat="49.18081" lon="1.94933">
        <ele>91</ele>
        <time>2017-03-11T14:31:01Z</time>
      </trkpt>
      <trkpt lat="49.18056" lon="1.94915">
        <ele>95</ele>
        <time>2017-03-11T14:31:16Z</time>
      </trkpt>
      <trkpt lat="49.18043" lon="1.94972">
        <ele>101</ele>
        <time>2017-03-11T14:31:31Z</time>
      </trkpt>
      <trkpt lat="49.18031" lon="1.95031">
        <ele>103</ele>
        <time>2017-03-11T14:31:44Z</time>
      </trkpt>
      <trkpt lat="49.18021" lon="1.95089">
        <ele>104</ele>
        <time>2017-03-11T14:31:58Z</time>
      </trkpt>
      <trkpt lat="49.18011" lon="1.95153">
        <ele>105</ele>
        <time>2017-03-11T14:32:16Z</time>
      </trkpt>
      <trkpt lat="49.17996" lon="1.95216">
        <ele>104</ele>
        <time>2017-03-11T14:33:36Z</time>
      </trkpt>
      <trkpt lat="49.18025" lon="1.9522">
        <ele>104</ele>
        <time>2017-03-11T14:34:23Z</time>
      </trkpt>
      <trkpt lat="49.1805" lon="1.95272">
        <ele>104</ele>
        <time>2017-03-11T14:34:39Z</time>
      </trkpt>
      <trkpt lat="49.18075" lon="1.95329">
        <ele>105</ele>
        <time>2017-03-11T14:34:54Z</time>
      </trkpt>
      <trkpt lat="49.18098" lon="1.95383">
        <ele>106</ele>
        <time>2017-03-11T14:35:08Z</time>
      </trkpt>
      <trkpt lat="49.18123" lon="1.95438">
        <ele>106</ele>
        <time>2017-03-11T14:35:22Z</time>
      </trkpt>
      <trkpt lat="49.18126" lon="1.95497">
        <ele>106</ele>
        <time>2017-03-11T14:35:37Z</time>
      </trkpt>
      <trkpt lat="49.18097" lon="1.95554">
        <ele>108</ele>
        <time>2017-03-11T14:35:52Z</time>
      </trkpt>
      <trkpt lat="49.1807" lon="1.956">
        <ele>110</ele>
        <time>2017-03-11T14:36:07Z</time>
      </trkpt>
      <trkpt lat="49.1804" lon="1.95648">
        <ele>111</ele>
        <time>2017-03-11T14:36:22Z</time>
      </trkpt>
      <trkpt lat="49.18013" lon="1.95697">
        <ele>112</ele>
        <time>2017-03-11T14:36:36Z</time>
      </trkpt>
      <trkpt lat="49.17986" lon="1.95743">
        <ele>113</ele>
        <time>2017-03-11T14:36:49Z</time>
      </trkpt>
      <trkpt lat="49.17959" lon="1.95789">
        <ele>115</ele>
        <time>2017-03-11T14:37:03Z</time>
      </trkpt>
      <trkpt lat="49.17932" lon="1.95835">
        <ele>116</ele>
        <time>2017-03-11T14:37:16Z</time>
      </trkpt>
      <trkpt lat="49.17905" lon="1.95881">
        <ele>117</ele>
        <time>2017-03-11T14:37:29Z</time>
      </trkpt>
      <trkpt lat="49.17876" lon="1.95923">
        <ele>118</ele>
        <time>2017-03-11T14:37:42Z</time>
      </trkpt>
      <trkpt lat="49.17849" lon="1.95965">
        <ele>118</ele>
        <time>2017-03-11T14:37:55Z</time>
      </trkpt>
      <trkpt lat="49.17821" lon="1.96012">
        <ele>120</ele>
        <time>2017-03-11T14:38:09Z</time>
      </trkpt>
      <trkpt lat="49.1779" lon="1.96064">
        <ele>121</ele>
        <time>2017-03-11T14:38:25Z</time>
      </trkpt>
      <trkpt lat="49.17758" lon="1.96112">
        <ele>122</ele>
        <time>2017-03-11T14:38:42Z</time>
      </trkpt>
      <trkpt lat="49.17725" lon="1.96161">
        <ele>124</ele>
        <time>2017-03-11T14:39:00Z</time>
      </trkpt>
      <trkpt lat="49.17696" lon="1.96218">
        <ele>125</ele>
        <time>2017-03-11T14:39:15Z</time>
      </trkpt>
      <trkpt lat="49.17672" lon="1.96279">
        <ele>126</ele>
        <time>2017-03-11T14:39:32Z</time>
      </trkpt>
      <trkpt lat="49.17654" lon="1.96336">
        <ele>126</ele>
        <time>2017-03-11T14:39:44Z</time>
      </trkpt>
      <trkpt lat="49.17638" lon="1.96395">
        <ele>127</ele>
        <time>2017-03-11T14:39:55Z</time>
      </trkpt>
      <trkpt lat="49.17623" lon="1.96451">
        <ele>128</ele>
        <time>2017-03-11T14:40:10Z</time>
      </trkpt>
      <trkpt lat="49.17598" lon="1.96503">
        <ele>128</ele>
        <time>2017-03-11T14:40:25Z</time>
      </trkpt>
      <trkpt lat="49.17573" lon="1.9655">
        <ele>129</ele>
        <time>2017-03-11T14:40:37Z</time>
      </trkpt>
      <trkpt lat="49.17548" lon="1.96597">
        <ele>129</ele>
        <time>2017-03-11T14:40:48Z</time>
      </trkpt>
      <trkpt lat="49.17518" lon="1.96645">
        <ele>131</ele>
        <time>2017-03-11T14:41:03Z</time>
      </trkpt>
      <trkpt lat="49.17492" lon="1.9669">
        <ele>133</ele>
        <time>2017-03-11T14:41:17Z</time>
      </trkpt>
      <trkpt lat="49.17468" lon="1.96738">
        <ele>134</ele>
        <time>2017-03-11T14:41:31Z</time>
      </trkpt>
      <trkpt lat="49.17447" lon="1.96792">
        <ele>135</ele>
        <time>2017-03-11T14:41:48Z</time>
      </trkpt>
      <trkpt lat="49.17427" lon="1.96844">
        <ele>137</ele>
        <time>2017-03-11T14:42:03Z</time>
      </trkpt>
      <trkpt lat="49.17402" lon="1.96897">
        <ele>137</ele>
        <time>2017-03-11T14:42:19Z</time>
      </trkpt>
      <trkpt lat="49.17371" lon="1.96943">
        <ele>137</ele>
        <time>2017-03-11T14:42:31Z</time>
      </trkpt>
      <trkpt lat="49.1734" lon="1.96988">
        <ele>136</ele>
        <time>2017-03-11T14:42:42Z</time>
      </trkpt>
      <trkpt lat="49.17312" lon="1.97031">
        <ele>136</ele>
        <time>2017-03-11T14:42:53Z</time>
      </trkpt>
      <trkpt lat="49.17289" lon="1.97085">
        <ele>137</ele>
        <time>2017-03-11T14:43:03Z</time>
      </trkpt>
      <trkpt lat="49.1727" lon="1.97142">
        <ele>138</ele>
        <time>2017-03-11T14:43:13Z</time>
      </trkpt>
      <trkpt lat="49.17246" lon="1.9719">
        <ele>140</ele>
        <time>2017-03-11T14:43:24Z</time>
      </trkpt>
      <trkpt lat="49.17219" lon="1.97235">
        <ele>141</ele>
        <time>2017-03-11T14:43:39Z</time>
      </trkpt>
      <trkpt lat="49.17193" lon="1.97282">
        <ele>142</ele>
        <time>2017-03-11T14:43:56Z</time>
      </trkpt>
      <trkpt lat="49.17167" lon="1.97329">
        <ele>143</ele>
        <time>2017-03-11T14:44:13Z</time>
      </trkpt>
      <trkpt lat="49.17139" lon="1.97379">
        <ele>145</ele>
        <time>2017-03-11T14:44:32Z</time>
      </trkpt>
      <trkpt lat="49.17112" lon="1.97432">
        <ele>145</ele>
        <time>2017-03-11T14:44:50Z</time>
      </trkpt>
      <trkpt lat="49.17078" lon="1.97476">
        <ele>146</ele>
        <time>2017-03-11T14:45:04Z</time>
      </trkpt>
      <trkpt lat="49.17029" lon="1.97497">
        <ele>148</ele>
        <time>2017-03-11T14:47:23Z</time>
      </trkpt>
      <trkpt lat="49.16988" lon="1.97517">
        <ele>152</ele>
        <time>2017-03-11T14:47:41Z</time>
      </trkpt>
      <trkpt lat="49.16954" lon="1.97527">
        <ele>154</ele>
        <time>2017-03-11T14:48:50Z</time>
      </trkpt>
      <trkpt lat="49.1692" lon="1.97543">
        <ele>156</ele>
        <time>2017-03-11T14:49:36Z</time>
      </trkpt>
      <trkpt lat="49.16877" lon="1.9756">
        <ele>158</ele>
        <time>2017-03-11T14:49:56Z</time>
      </trkpt>
      <trkpt lat="49.16833" lon="1.97574">
        <ele>158</ele>
        <time>2017-03-11T14:50:17Z</time>
      </trkpt>
      <trkpt lat="49.16818" lon="1.97638">
        <ele>155</ele>
        <time>2017-03-11T14:50:32Z</time>
      </trkpt>
      <trkpt lat="49.1679" lon="1.97679">
        <ele>153</ele>
        <time>2017-03-11T14:50:42Z</time>
      </trkpt>
      <trkpt lat="49.16763" lon="1.97729">
        <ele>154</ele>
        <time>2017-03-11T14:50:50Z</time>
      </trkpt>
      <trkpt lat="49.16756" lon="1.97793">
        <ele>153</ele>
        <time>2017-03-11T14:50:56Z</time>
      </trkpt>
      <trkpt lat="49.16755" lon="1.9786">
        <ele>152</ele>
        <time>2017-03-11T14:51:03Z</time>
      </trkpt>
      <trkpt lat="49.16733" lon="1.97906">
        <ele>153</ele>
        <time>2017-03-11T14:51:18Z</time>
      </trkpt>
      <trkpt lat="49.16714" lon="1.97957">
        <ele>155</ele>
        <time>2017-03-11T14:51:39Z</time>
      </trkpt>
      <trkpt lat="49.16689" lon="1.98012">
        <ele>157</ele>
        <time>2017-03-11T14:51:59Z</time>
      </trkpt>
      <trkpt lat="49.16669" lon="1.98065">
        <ele>159</ele>
        <time>2017-03-11T14:52:18Z</time>
      </trkpt>
      <trkpt lat="49.16646" lon="1.98114">
        <ele>161</ele>
        <time>2017-03-11T14:52:37Z</time>
      </trkpt>
      <trkpt lat="49.16611" lon="1.9808">
        <ele>162</ele>
        <time>2017-03-11T14:52:55Z</time>
      </trkpt>
      <trkpt lat="49.16576" lon="1.98049">
        <ele>165</ele>
        <time>2017-03-11T14:53:15Z</time>
      </trkpt>
      <trkpt lat="49.16538" lon="1.98018">
        <ele>168</ele>
        <time>2017-03-11T14:53:35Z</time>
      </trkpt>
      <trkpt lat="49.16501" lon="1.97989">
        <ele>171</ele>
        <time>2017-03-11T14:54:01Z</time>
      </trkpt>
      <trkpt lat="49.16427" lon="1.9793">
        <ele>175</ele>
        <time>2017-03-11T14:55:42Z</time>
      </trkpt>
      <trkpt lat="49.16386" lon="1.97989">
        <ele>177</ele>
        <time>2017-03-11T14:56:19Z</time>
      </trkpt>
      <trkpt lat="49.16354" lon="1.98061">
        <ele>179</ele>
        <time>2017-03-11T14:56:56Z</time>
      </trkpt>
      <trkpt lat="49.16303" lon="1.98131">
        <ele>183</ele>
        <time>2017-03-11T14:57:44Z</time>
      </trkpt>
      <trkpt lat="49.16266" lon="1.98201">
        <ele>185</ele>
        <time>2017-03-11T14:58:23Z</time>
      </trkpt>
      <trkpt lat="49.1622" lon="1.98265">
        <ele>187</ele>
        <time>2017-03-11T14:58:51Z</time>
      </trkpt>
      <trkpt lat="49.16185" lon="1.98335">
        <ele>189</ele>
        <time>2017-03-11T14:59:16Z</time>
      </trkpt>
      <trkpt lat="49.16141" lon="1.98411">
        <ele>192</ele>
        <time>2017-03-11T14:59:49Z</time>
      </trkpt>
      <trkpt lat="49.1612" lon="1.98484">
        <ele>195</ele>
        <time>2017-03-11T15:00:13Z</time>
      </trkpt>
      <trkpt lat="49.16092" lon="1.98559">
        <ele>197</ele>
        <time>2017-03-11T15:01:13Z</time>
      </trkpt>
      <trkpt lat="49.16065" lon="1.98632">
        <ele>199</ele>
        <time>2017-03-11T15:01:44Z</time>
      </trkpt>
      <trkpt lat="49.16033" lon="1.98707">
        <ele>199</ele>
        <time>2017-03-11T15:02:14Z</time>
      </trkpt>
      <trkpt lat="49.15995" lon="1.98802">
        <ele>200</ele>
        <time>2017-03-11T15:02:53Z</time>
      </trkpt>
      <trkpt lat="49.1597" lon="1.98871">
        <ele>201</ele>
        <time>2017-03-11T15:03:17Z</time>
      </trkpt>
      <trkpt lat="49.15945" lon="1.98942">
        <ele>201</ele>
        <time>2017-03-11T15:03:38Z</time>
      </trkpt>
      <trkpt lat="49.1591" lon="1.99032">
        <ele>202</ele>
        <time>2017-03-11T15:04:39Z</time>
      </trkpt>
      <trkpt lat="49.15883" lon="1.9909">
        <ele>202</ele>
        <time>2017-03-11T15:04:55Z</time>
      </trkpt>
      <trkpt lat="49.15851" lon="1.99159">
        <ele>203</ele>
        <time>2017-03-11T15:05:16Z</time>
      </trkpt>
      <trkpt lat="49.15822" lon="1.99222">
        <ele>202</ele>
        <time>2017-03-11T15:05:33Z</time>
      </trkpt>
      <trkpt lat="49.15799" lon="1.99295">
        <ele>202</ele>
        <time>2017-03-11T15:05:49Z</time>
      </trkpt>
      <trkpt lat="49.15777" lon="1.99358">
        <ele>202</ele>
        <time>2017-03-11T15:06:03Z</time>
      </trkpt>
      <trkpt lat="49.15755" lon="1.99421">
        <ele>202</ele>
        <time>2017-03-11T15:06:16Z</time>
      </trkpt>
      <trkpt lat="49.1573" lon="1.99488">
        <ele>202</ele>
        <time>2017-03-11T15:06:31Z</time>
      </trkpt>
      <trkpt lat="49.15704" lon="1.99559">
        <ele>200</ele>
        <time>2017-03-11T15:06:52Z</time>
      </trkpt>
      <trkpt lat="49.15679" lon="1.99617">
        <ele>199</ele>
        <time>2017-03-11T15:07:08Z</time>
      </trkpt>
      <trkpt lat="49.15649" lon="1.99688">
        <ele>198</ele>
        <time>2017-03-11T15:07:26Z</time>
      </trkpt>
      <trkpt lat="49.15618" lon="1.99745">
        <ele>199</ele>
        <time>2017-03-11T15:07:41Z</time>
      </trkpt>
      <trkpt lat="49.1559" lon="1.99811">
        <ele>199</ele>
        <time>2017-03-11T15:07:58Z</time>
      </trkpt>
      <trkpt lat="49.15551" lon="1.99879">
        <ele>200</ele>
        <time>2017-03-11T15:08:15Z</time>
      </trkpt>
      <trkpt lat="49.1552" lon="1.99949">
        <ele>198</ele>
        <time>2017-03-11T15:08:27Z</time>
      </trkpt>
      <trkpt lat="49.15481" lon="2.00016">
        <ele>197</ele>
        <time>2017-03-11T15:08:49Z</time>
      </trkpt>
      <trkpt lat="49.15443" lon="2.0007">
        <ele>199</ele>
        <time>2017-03-11T15:09:07Z</time>
      </trkpt>
      <trkpt lat="49.15412" lon="2.00127">
        <ele>201</ele>
        <time>2017-03-11T15:09:29Z</time>
      </trkpt>
      <trkpt lat="49.15365" lon="2.00188">
        <ele>202</ele>
        <time>2017-03-11T15:09:56Z</time>
      </trkpt>
      <trkpt lat="49.15337" lon="2.00254">
        <ele>202</ele>
        <time>2017-03-11T15:10:18Z</time>
      </trkpt>
      <trkpt lat="49.15303" lon="2.00321">
        <ele>202</ele>
        <time>2017-03-11T15:10:33Z</time>
      </trkpt>
      <trkpt lat="49.15262" lon="2.00392">
        <ele>201</ele>
        <time>2017-03-11T15:11:15Z</time>
      </trkpt>
      <trkpt lat="49.15224" lon="2.00459">
        <ele>201</ele>
        <time>2017-03-11T15:11:28Z</time>
      </trkpt>
      <trkpt lat="49.15197" lon="2.00512">
        <ele>200</ele>
        <time>2017-03-11T15:11:38Z</time>
      </trkpt>
      <trkpt lat="49.15153" lon="2.0057">
        <ele>198</ele>
        <time>2017-03-11T15:11:52Z</time>
      </trkpt>
      <trkpt lat="49.15115" lon="2.00624">
        <ele>197</ele>
        <time>2017-03-11T15:12:07Z</time>
      </trkpt>
      <trkpt lat="49.15067" lon="2.00668">
        <ele>195</ele>
        <time>2017-03-11T15:12:16Z</time>
      </trkpt>
      <trkpt lat="49.15038" lon="2.00714">
        <ele>195</ele>
        <time>2017-03-11T15:12:25Z</time>
      </trkpt>
      <trkpt lat="49.14997" lon="2.00753">
        <ele>194</ele>
        <time>2017-03-11T15:12:39Z</time>
      </trkpt>
      <trkpt lat="49.14942" lon="2.00781">
        <ele>193</ele>
        <time>2017-03-11T15:12:49Z</time>
      </trkpt>
      <trkpt lat="49.1491" lon="2.0083">
        <ele>192</ele>
        <time>2017-03-11T15:13:03Z</time>
      </trkpt>
      <trkpt lat="49.14875" lon="2.00884">
        <ele>190</ele>
        <time>2017-03-11T15:13:19Z</time>
      </trkpt>
      <trkpt lat="49.14838" lon="2.00944">
        <ele>187</ele>
        <time>2017-03-11T15:13:40Z</time>
      </trkpt>
      <trkpt lat="49.14798" lon="2.01006">
        <ele>182</ele>
        <time>2017-03-11T15:13:57Z</time>
      </trkpt>
      <trkpt lat="49.14757" lon="2.01049">
        <ele>178</ele>
        <time>2017-03-11T15:14:11Z</time>
      </trkpt>
      <trkpt lat="49.14719" lon="2.01099">
        <ele>172</ele>
        <time>2017-03-11T15:14:22Z</time>
      </trkpt>
      <trkpt lat="49.14682" lon="2.01143">
        <ele>167</ele>
        <time>2017-03-11T15:14:31Z</time>
      </trkpt>
      <trkpt lat="49.14641" lon="2.0118">
        <ele>164</ele>
        <time>2017-03-11T15:14:39Z</time>
      </trkpt>
      <trkpt lat="49.14608" lon="2.01217">
        <ele>161</ele>
        <time>2017-03-11T15:14:46Z</time>
      </trkpt>
      <trkpt lat="49.14557" lon="2.0133">
        <ele>158</ele>
        <time>2017-03-11T15:15:01Z</time>
      </trkpt>
      <trkpt lat="49.14537" lon="2.01389">
        <ele>157</ele>
        <time>2017-03-11T15:15:07Z</time>
      </trkpt>
      <trkpt lat="49.14512" lon="2.01444">
        <ele>158</ele>
        <time>2017-03-11T15:15:13Z</time>
      </trkpt>
      <trkpt lat="49.1448" lon="2.0149">
        <ele>157</ele>
        <time>2017-03-11T15:15:19Z</time>
      </trkpt>
      <trkpt lat="49.1445" lon="2.01533">
        <ele>156</ele>
        <time>2017-03-11T15:15:25Z</time>
      </trkpt>
      <trkpt lat="49.14419" lon="2.01578">
        <ele>154</ele>
        <time>2017-03-11T15:15:32Z</time>
      </trkpt>
      <trkpt lat="49.14389" lon="2.01624">
        <ele>151</ele>
        <time>2017-03-11T15:15:40Z</time>
      </trkpt>
      <trkpt lat="49.14352" lon="2.01675">
        <ele>151</ele>
        <time>2017-03-11T15:16:35Z</time>
      </trkpt>
      <trkpt lat="49.14325" lon="2.01726">
        <ele>152</ele>
        <time>2017-03-11T15:16:49Z</time>
      </trkpt>
      <trkpt lat="49.14307" lon="2.01782">
        <ele>153</ele>
        <time>2017-03-11T15:17:04Z</time>
      </trkpt>
      <trkpt lat="49.14308" lon="2.01844">
        <ele>153</ele>
        <time>2017-03-11T15:17:18Z</time>
      </trkpt>
      <trkpt lat="49.14316" lon="2.01907">
        <ele>152</ele>
        <time>2017-03-11T15:17:31Z</time>
      </trkpt>
      <trkpt lat="49.14307" lon="2.01967">
        <ele>152</ele>
        <time>2017-03-11T15:17:41Z</time>
      </trkpt>
      <trkpt lat="49.14281" lon="2.02012">
        <ele>153</ele>
        <time>2017-03-11T15:17:56Z</time>
      </trkpt>
      <trkpt lat="49.14251" lon="2.02058">
        <ele>155</ele>
        <time>2017-03-11T15:18:10Z</time>
      </trkpt>
      <trkpt lat="49.14233" lon="2.02114">
        <ele>155</ele>
        <time>2017-03-11T15:18:24Z</time>
      </trkpt>
      <trkpt lat="49.14251" lon="2.02167">
        <ele>154</ele>
        <time>2017-03-11T15:18:34Z</time>
      </trkpt>
      <trkpt lat="49.14265" lon="2.02224">
        <ele>153</ele>
        <time>2017-03-11T15:19:34Z</time>
      </trkpt>
      <trkpt lat="49.14257" lon="2.02284">
        <ele>153</ele>
        <time>2017-03-11T15:19:47Z</time>
      </trkpt>
      <trkpt lat="49.14234" lon="2.02333">
        <ele>153</ele>
        <time>2017-03-11T15:19:57Z</time>
      </trkpt>
      <trkpt lat="49.14217" lon="2.02388">
        <ele>152</ele>
        <time>2017-03-11T15:20:07Z</time>
      </trkpt>
      <trkpt lat="49.1421" lon="2.02456">
        <ele>151</ele>
        <time>2017-03-11T15:20:16Z</time>
      </trkpt>
      <trkpt lat="49.14192" lon="2.02522">
        <ele>149</ele>
        <time>2017-03-11T15:20:24Z</time>
      </trkpt>
      <trkpt lat="49.14177" lon="2.02578">
        <ele>147</ele>
        <time>2017-03-11T15:20:30Z</time>
      </trkpt>
      <trkpt lat="49.14159" lon="2.02646">
        <ele>144</ele>
        <time>2017-03-11T15:20:36Z</time>
      </trkpt>
      <trkpt lat="49.14143" lon="2.02711">
        <ele>140</ele>
        <time>2017-03-11T15:20:41Z</time>
      </trkpt>
      <trkpt lat="49.14124" lon="2.02776">
        <ele>138</ele>
        <time>2017-03-11T15:20:46Z</time>
      </trkpt>
      <trkpt lat="49.14106" lon="2.02837">
        <ele>136</ele>
        <time>2017-03-11T15:20:51Z</time>
      </trkpt>
      <trkpt lat="49.1409" lon="2.02893">
        <ele>135</ele>
        <time>2017-03-11T15:20:56Z</time>
      </trkpt>
      <trkpt lat="49.14075" lon="2.02951">
        <ele>133</ele>
        <time>2017-03-11T15:21:02Z</time>
      </trkpt>
      <trkpt lat="49.14059" lon="2.03014">
        <ele>132</ele>
        <time>2017-03-11T15:21:10Z</time>
      </trkpt>
      <trkpt lat="49.14045" lon="2.03075">
        <ele>132</ele>
        <time>2017-03-11T15:21:19Z</time>
      </trkpt>
      <trkpt lat="49.14031" lon="2.03133">
        <ele>131</ele>
        <time>2017-03-11T15:21:28Z</time>
      </trkpt>
      <trkpt lat="49.14019" lon="2.03191">
        <ele>132</ele>
        <time>2017-03-11T15:21:38Z</time>
      </trkpt>
      <trkpt lat="49.14005" lon="2.03251">
        <ele>133</ele>
        <time>2017-03-11T15:21:48Z</time>
      </trkpt>
      <trkpt lat="49.13988" lon="2.03309">
        <ele>133</ele>
        <time>2017-03-11T15:21:58Z</time>
      </trkpt>
      <trkpt lat="49.13966" lon="2.03362">
        <ele>134</ele>
        <time>2017-03-11T15:22:07Z</time>
      </trkpt>
      <trkpt lat="49.13936" lon="2.03411">
        <ele>133</ele>
        <time>2017-03-11T15:22:16Z</time>
      </trkpt>
      <trkpt lat="49.13907" lon="2.03456">
        <ele>134</ele>
        <time>2017-03-11T15:22:25Z</time>
      </trkpt>
      <trkpt lat="49.1388" lon="2.03504">
        <ele>134</ele>
        <time>2017-03-11T15:22:35Z</time>
      </trkpt>
      <trkpt lat="49.13855" lon="2.03553">
        <ele>135</ele>
        <time>2017-03-11T15:22:48Z</time>
      </trkpt>
      <trkpt lat="49.13835" lon="2.03603">
        <ele>138</ele>
        <time>2017-03-11T15:23:05Z</time>
      </trkpt>
      <trkpt lat="49.13813" lon="2.0365">
        <ele>141</ele>
        <time>2017-03-11T15:23:30Z</time>
      </trkpt>
      <trkpt lat="49.13788" lon="2.03704">
        <ele>145</ele>
        <time>2017-03-11T15:23:55Z</time>
      </trkpt>
      <trkpt lat="49.13765" lon="2.03762">
        <ele>147</ele>
        <time>2017-03-11T15:24:13Z</time>
      </trkpt>
      <trkpt lat="49.13745" lon="2.0382">
        <ele>148</ele>
        <time>2017-03-11T15:24:30Z</time>
      </trkpt>
      <trkpt lat="49.13725" lon="2.03873">
        <ele>148</ele>
        <time>2017-03-11T15:24:44Z</time>
      </trkpt>
      <trkpt lat="49.1371" lon="2.03935">
        <ele>149</ele>
        <time>2017-03-11T15:24:58Z</time>
      </trkpt>
      <trkpt lat="49.137" lon="2.03996">
        <ele>148</ele>
        <time>2017-03-11T15:25:10Z</time>
      </trkpt>
      <trkpt lat="49.1369" lon="2.04058">
        <ele>147</ele>
        <time>2017-03-11T15:25:20Z</time>
      </trkpt>
      <trkpt lat="49.13681" lon="2.04126">
        <ele>145</ele>
        <time>2017-03-11T15:25:28Z</time>
      </trkpt>
      <trkpt lat="49.13682" lon="2.0419">
        <ele>142</ele>
        <time>2017-03-11T15:25:34Z</time>
      </trkpt>
      <trkpt lat="49.13676" lon="2.04253">
        <ele>141</ele>
        <time>2017-03-11T15:25:39Z</time>
      </trkpt>
      <trkpt lat="49.13658" lon="2.0431">
        <ele>140</ele>
        <time>2017-03-11T15:25:44Z</time>
      </trkpt>
      <trkpt lat="49.13638" lon="2.04368">
        <ele>139</ele>
        <time>2017-03-11T15:25:50Z</time>
      </trkpt>
      <trkpt lat="49.13618" lon="2.04426">
        <ele>140</ele>
        <time>2017-03-11T15:25:59Z</time>
      </trkpt>
      <trkpt lat="49.13597" lon="2.0448">
        <ele>141</ele>
        <time>2017-03-11T15:26:15Z</time>
      </trkpt>
      <trkpt lat="49.13573" lon="2.04532">
        <ele>143</ele>
        <time>2017-03-11T15:26:29Z</time>
      </trkpt>
      <trkpt lat="49.13544" lon="2.04592">
        <ele>144</ele>
        <time>2017-03-11T15:26:44Z</time>
      </trkpt>
      <trkpt lat="49.13519" lon="2.04651">
        <ele>145</ele>
        <time>2017-03-11T15:26:59Z</time>
      </trkpt>
      <trkpt lat="49.13502" lon="2.04704">
        <ele>146</ele>
        <time>2017-03-11T15:27:13Z</time>
      </trkpt>
      <trkpt lat="49.13477" lon="2.04763">
        <ele>147</ele>
        <time>2017-03-11T15:27:31Z</time>
      </trkpt>
      <trkpt lat="49.13447" lon="2.04809">
        <ele>147</ele>
        <time>2017-03-11T15:27:48Z</time>
      </trkpt>
      <trkpt lat="49.13417" lon="2.04851">
        <ele>148</ele>
        <time>2017-03-11T15:28:03Z</time>
      </trkpt>
      <trkpt lat="49.13373" lon="2.04871">
        <ele>149</ele>
        <time>2017-03-11T15:28:15Z</time>
      </trkpt>
      <trkpt lat="49.1333" lon="2.04882">
        <ele>150</ele>
        <time>2017-03-11T15:28:26Z</time>
      </trkpt>
      <trkpt lat="49.1329" lon="2.04888">
        <ele>152</ele>
        <time>2017-03-11T15:29:24Z</time>
      </trkpt>
      <trkpt lat="49.13249" lon="2.04904">
        <ele>153</ele>
        <time>2017-03-11T15:29:40Z</time>
      </trkpt>
      <trkpt lat="49.13235" lon="2.04965">
        <ele>154</ele>
        <time>2017-03-11T15:29:55Z</time>
      </trkpt>
      <trkpt lat="49.13214" lon="2.05023">
        <ele>156</ele>
        <time>2017-03-11T15:37:27Z</time>
      </trkpt>
      <trkpt lat="49.13178" lon="2.05066">
        <ele>157</ele>
        <time>2017-03-11T15:38:07Z</time>
      </trkpt>
      <trkpt lat="49.13136" lon="2.0505">
        <ele>156</ele>
        <time>2017-03-11T15:38:20Z</time>
      </trkpt>
      <trkpt lat="49.13094" lon="2.05051">
        <ele>154</ele>
        <time>2017-03-11T15:38:35Z</time>
      </trkpt>
      <trkpt lat="49.13067" lon="2.05088">
        <ele>153</ele>
        <time>2017-03-11T15:38:49Z</time>
      </trkpt>
      <trkpt lat="49.13043" lon="2.05139">
        <ele>152</ele>
        <time>2017-03-11T15:38:59Z</time>
      </trkpt>
      <trkpt lat="49.13015" lon="2.05182">
        <ele>154</ele>
        <time>2017-03-11T15:39:14Z</time>
      </trkpt>
      <trkpt lat="49.13014" lon="2.05236">
        <ele>156</ele>
        <time>2017-03-11T15:40:12Z</time>
      </trkpt>
      <trkpt lat="49.12985" lon="2.05278">
        <ele>158</ele>
        <time>2017-03-11T15:40:37Z</time>
      </trkpt>
      <trkpt lat="49.12947" lon="2.05314">
        <ele>157</ele>
        <time>2017-03-11T15:40:51Z</time>
      </trkpt>
      <trkpt lat="49.12911" lon="2.05346">
        <ele>154</ele>
        <time>2017-03-11T15:40:59Z</time>
      </trkpt>
      <trkpt lat="49.1287" lon="2.05382">
        <ele>150</ele>
        <time>2017-03-11T15:41:07Z</time>
      </trkpt>
      <trkpt lat="49.12834" lon="2.05411">
        <ele>146</ele>
        <time>2017-03-11T15:41:14Z</time>
      </trkpt>
      <trkpt lat="49.12798" lon="2.05448">
        <ele>143</ele>
        <time>2017-03-11T15:41:20Z</time>
      </trkpt>
      <trkpt lat="49.12765" lon="2.05491">
        <ele>142</ele>
        <time>2017-03-11T15:41:27Z</time>
      </trkpt>
      <trkpt lat="49.1274" lon="2.05537">
        <ele>143</ele>
        <time>2017-03-11T15:41:39Z</time>
      </trkpt>
      <trkpt lat="49.127" lon="2.0557">
        <ele>141</ele>
        <time>2017-03-11T15:42:00Z</time>
      </trkpt>
      <trkpt lat="49.1263" lon="2.05572">
        <ele>140</ele>
        <time>2017-03-11T15:42:23Z</time>
      </trkpt>
      <trkpt lat="49.12581" lon="2.05573">
        <ele>141</ele>
        <time>2017-03-11T15:42:47Z</time>
      </trkpt>
      <trkpt lat="49.12539" lon="2.05592">
        <ele>142</ele>
        <time>2017-03-11T15:43:06Z</time>
      </trkpt>
      <trkpt lat="49.12502" lon="2.05635">
        <ele>145</ele>
        <time>2017-03-11T15:43:29Z</time>
      </trkpt>
      <trkpt lat="49.1247" lon="2.05681">
        <ele>147</ele>
        <time>2017-03-11T15:43:53Z</time>
      </trkpt>
      <trkpt lat="49.12434" lon="2.05741">
        <ele>149</ele>
        <time>2017-03-11T15:44:28Z</time>
      </trkpt>
      <trkpt lat="49.12413" lon="2.05818">
        <ele>151</ele>
        <time>2017-03-11T15:44:50Z</time>
      </trkpt>
      <trkpt lat="49.124" lon="2.05877">
        <ele>152</ele>
        <time>2017-03-11T15:45:08Z</time>
      </trkpt>
      <trkpt lat="49.12376" lon="2.05933">
        <ele>152</ele>
        <time>2017-03-11T15:45:24Z</time>
      </trkpt>
      <trkpt lat="49.12351" lon="2.05981">
        <ele>152</ele>
        <time>2017-03-11T15:45:39Z</time>
      </trkpt>
      <trkpt lat="49.12329" lon="2.06028">
        <ele>152</ele>
        <time>2017-03-11T15:45:51Z</time>
      </trkpt>
      <trkpt lat="49.12308" lon="2.06083">
        <ele>152</ele>
        <time>2017-03-11T15:46:07Z</time>
      </trkpt>
      <trkpt lat="49.12277" lon="2.06116">
        <ele>150</ele>
        <time>2017-03-11T15:46:19Z</time>
      </trkpt>
      <trkpt lat="49.12241" lon="2.06151">
        <ele>147</ele>
        <time>2017-03-11T15:46:32Z</time>
      </trkpt>
      <trkpt lat="49.122" lon="2.06166">
        <ele>143</ele>
        <time>2017-03-11T15:46:41Z</time>
      </trkpt>
      <trkpt lat="49.12162" lon="2.06198">
        <ele>140</ele>
        <time>2017-03-11T15:46:54Z</time>
      </trkpt>
      <trkpt lat="49.12121" lon="2.06222">
        <ele>136</ele>
        <time>2017-03-11T15:47:01Z</time>
      </trkpt>
      <trkpt lat="49.12082" lon="2.06235">
        <ele>133</ele>
        <time>2017-03-11T15:47:07Z</time>
      </trkpt>
      <trkpt lat="49.12052" lon="2.06191">
        <ele>131</ele>
        <time>2017-03-11T15:47:14Z</time>
      </trkpt>
      <trkpt lat="49.12032" lon="2.06136">
        <ele>129</ele>
        <time>2017-03-11T15:47:20Z</time>
      </trkpt>
      <trkpt lat="49.11995" lon="2.06118">
        <ele>126</ele>
        <time>2017-03-11T15:47:27Z</time>
      </trkpt>
      <trkpt lat="49.11966" lon="2.06159">
        <ele>123</ele>
        <time>2017-03-11T15:47:34Z</time>
      </trkpt>
      <trkpt lat="49.1195" lon="2.06213">
        <ele>121</ele>
        <time>2017-03-11T15:47:45Z</time>
      </trkpt>
      <trkpt lat="49.11909" lon="2.06238">
        <ele>117</ele>
        <time>2017-03-11T15:47:57Z</time>
      </trkpt>
      <trkpt lat="49.11869" lon="2.06242">
        <ele>114</ele>
        <time>2017-03-11T15:48:06Z</time>
      </trkpt>
      <trkpt lat="49.11824" lon="2.06246">
        <ele>111</ele>
        <time>2017-03-11T15:48:14Z</time>
      </trkpt>
      <trkpt lat="49.11779" lon="2.06238">
        <ele>109</ele>
        <time>2017-03-11T15:48:21Z</time>
      </trkpt>
      <trkpt lat="49.11739" lon="2.0623">
        <ele>108</ele>
        <time>2017-03-11T15:48:28Z</time>
      </trkpt>
      <trkpt lat="49.11716" lon="2.06279">
        <ele>106</ele>
        <time>2017-03-11T15:48:36Z</time>
      </trkpt>
      <trkpt lat="49.11687" lon="2.06328">
        <ele>105</ele>
        <time>2017-03-11T15:48:46Z</time>
      </trkpt>
      <trkpt lat="49.11661" lon="2.06372">
        <ele>104</ele>
        <time>2017-03-11T15:48:56Z</time>
      </trkpt>
      <trkpt lat="49.11639" lon="2.06419">
        <ele>103</ele>
        <time>2017-03-11T15:49:04Z</time>
      </trkpt>
      <trkpt lat="49.11614" lon="2.06469">
        <ele>103</ele>
        <time>2017-03-11T15:49:14Z</time>
      </trkpt>
      <trkpt lat="49.11591" lon="2.06523">
        <ele>102</ele>
        <time>2017-03-11T15:49:22Z</time>
      </trkpt>
      <trkpt lat="49.11567" lon="2.06577">
        <ele>100</ele>
        <time>2017-03-11T15:49:31Z</time>
      </trkpt>
      <trkpt lat="49.11546" lon="2.06633">
        <ele>100</ele>
        <time>2017-03-11T15:49:41Z</time>
      </trkpt>
      <trkpt lat="49.1152" lon="2.06688">
        <ele>99</ele>
        <time>2017-03-11T15:49:50Z</time>
      </trkpt>
      <trkpt lat="49.11493" lon="2.06736">
        <ele>99</ele>
        <time>2017-03-11T15:50:00Z</time>
      </trkpt>
      <trkpt lat="49.11476" lon="2.06795">
        <ele>98</ele>
        <time>2017-03-11T15:50:12Z</time>
      </trkpt>
      <trkpt lat="49.11474" lon="2.0686">
        <ele>98</ele>
        <time>2017-03-11T15:50:24Z</time>
      </trkpt>
      <trkpt lat="49.11457" lon="2.06904">
        <ele>98</ele>
        <time>2017-03-11T15:50:40Z</time>
      </trkpt>
      <trkpt lat="49.11416" lon="2.06913">
        <ele>97</ele>
        <time>2017-03-11T15:50:50Z</time>
      </trkpt>
      <trkpt lat="49.11373" lon="2.06926">
        <ele>97</ele>
        <time>2017-03-11T15:51:02Z</time>
      </trkpt>
      <trkpt lat="49.11332" lon="2.06941">
        <ele>97</ele>
        <time>2017-03-11T15:51:14Z</time>
      </trkpt>
      <trkpt lat="49.11291" lon="2.06958">
        <ele>97</ele>
        <time>2017-03-11T15:51:25Z</time>
      </trkpt>
      <trkpt lat="49.11252" lon="2.06974">
        <ele>96</ele>
        <time>2017-03-11T15:51:37Z</time>
      </trkpt>
      <trkpt lat="49.11211" lon="2.06979">
        <ele>96</ele>
        <time>2017-03-11T15:51:45Z</time>
      </trkpt>
      <trkpt lat="49.11169" lon="2.06979">
        <ele>95</ele>
        <time>2017-03-11T15:51:54Z</time>
      </trkpt>
      <trkpt lat="49.11128" lon="2.06975">
        <ele>94</ele>
        <time>2017-03-11T15:52:04Z</time>
      </trkpt>
      <trkpt lat="49.11088" lon="2.06965">
        <ele>94</ele>
        <time>2017-03-11T15:52:12Z</time>
      </trkpt>
      <trkpt lat="49.11048" lon="2.06958">
        <ele>93</ele>
        <time>2017-03-11T15:52:22Z</time>
      </trkpt>
      <trkpt lat="49.11002" lon="2.06948">
        <ele>92</ele>
        <time>2017-03-11T15:52:35Z</time>
      </trkpt>
      <trkpt lat="49.1096" lon="2.06944">
        <ele>90</ele>
        <time>2017-03-11T15:52:45Z</time>
      </trkpt>
      <trkpt lat="49.10916" lon="2.06931">
        <ele>89</ele>
        <time>2017-03-11T15:53:06Z</time>
      </trkpt>
      <trkpt lat="49.10872" lon="2.06928">
        <ele>89</ele>
        <time>2017-03-11T15:53:17Z</time>
      </trkpt>
      <trkpt lat="49.10829" lon="2.0693">
        <ele>88</ele>
        <time>2017-03-11T15:53:27Z</time>
      </trkpt>
      <trkpt lat="49.10785" lon="2.06928">
        <ele>88</ele>
        <time>2017-03-11T15:53:37Z</time>
      </trkpt>
      <trkpt lat="49.10743" lon="2.06931">
        <ele>88</ele>
        <time>2017-03-11T15:53:47Z</time>
      </trkpt>
      <trkpt lat="49.10707" lon="2.06935">
        <ele>87</ele>
        <time>2017-03-11T15:59:37Z</time>
      </trkpt>
      <trkpt lat="49.10662" lon="2.06968">
        <ele>86</ele>
        <time>2017-03-11T15:59:52Z</time>
      </trkpt>
      <trkpt lat="49.10615" lon="2.06974">
        <ele>85</ele>
        <time>2017-03-11T16:00:03Z</time>
      </trkpt>
      <trkpt lat="49.10575" lon="2.06991">
        <ele>86</ele>
        <time>2017-03-11T16:00:15Z</time>
      </trkpt>
      <trkpt lat="49.10534" lon="2.06994">
        <ele>85</ele>
        <time>2017-03-11T16:00:27Z</time>
      </trkpt>
      <trkpt lat="49.10492" lon="2.06997">
        <ele>85</ele>
        <time>2017-03-11T16:00:45Z</time>
      </trkpt>
      <trkpt lat="49.10455" lon="2.07015">
        <ele>85</ele>
        <time>2017-03-11T16:01:01Z</time>
      </trkpt>
      <trkpt lat="49.10422" lon="2.07048">
        <ele>84</ele>
        <time>2017-03-11T16:01:19Z</time>
      </trkpt>
      <trkpt lat="49.10389" lon="2.0709">
        <ele>84</ele>
        <time>2017-03-11T16:01:33Z</time>
      </trkpt>
      <trkpt lat="49.10351" lon="2.07118">
        <ele>81</ele>
        <time>2017-03-11T16:01:46Z</time>
      </trkpt>
      <trkpt lat="49.10314" lon="2.07142">
        <ele>81</ele>
        <time>2017-03-11T16:01:58Z</time>
      </trkpt>
      <trkpt lat="49.10293" lon="2.07205">
        <ele>80</ele>
        <time>2017-03-11T16:08:16Z</time>
      </trkpt>
      <trkpt lat="49.10273" lon="2.07266">
        <ele>79</ele>
        <time>2017-03-11T16:08:36Z</time>
      </trkpt>
      <trkpt lat="49.1025" lon="2.07319">
        <ele>78</ele>
        <time>2017-03-11T16:08:50Z</time>
      </trkpt>
      <trkpt lat="49.10225" lon="2.07368">
        <ele>79</ele>
        <time>2017-03-11T16:09:06Z</time>
      </trkpt>
      <trkpt lat="49.10218" lon="2.07432">
        <ele>81</ele>
        <time>2017-03-11T16:09:34Z</time>
      </trkpt>
      <trkpt lat="49.10213" lon="2.075">
        <ele>85</ele>
        <time>2017-03-11T16:09:59Z</time>
      </trkpt>
      <trkpt lat="49.10205" lon="2.07557">
        <ele>87</ele>
        <time>2017-03-11T16:10:23Z</time>
      </trkpt>
      <trkpt lat="49.10186" lon="2.07604">
        <ele>89</ele>
        <time>2017-03-11T16:10:43Z</time>
      </trkpt>
      <trkpt lat="49.10167" lon="2.07655">
        <ele>89</ele>
        <time>2017-03-11T16:10:59Z</time>
      </trkpt>
      <trkpt lat="49.10145" lon="2.077">
        <ele>90</ele>
        <time>2017-03-11T16:11:15Z</time>
      </trkpt>
      <trkpt lat="49.10126" lon="2.07749">
        <ele>90</ele>
        <time>2017-03-11T16:11:30Z</time>
      </trkpt>
      <trkpt lat="49.10104" lon="2.07805">
        <ele>91</ele>
        <time>2017-03-11T16:11:46Z</time>
      </trkpt>
      <trkpt lat="49.1008" lon="2.07861">
        <ele>90</ele>
        <time>2017-03-11T16:12:00Z</time>
      </trkpt>
      <trkpt lat="49.1006" lon="2.07916">
        <ele>90</ele>
        <time>2017-03-11T16:12:13Z</time>
      </trkpt>
      <trkpt lat="49.10039" lon="2.07971">
        <ele>89</ele>
        <time>2017-03-11T16:12:23Z</time>
      </trkpt>
      <trkpt lat="49.10018" lon="2.08026">
        <ele>88</ele>
        <time>2017-03-11T16:12:34Z</time>
      </trkpt>
      <trkpt lat="49.09996" lon="2.08082">
        <ele>87</ele>
        <time>2017-03-11T16:12:46Z</time>
      </trkpt>
      <trkpt lat="49.09976" lon="2.08135">
        <ele>86</ele>
        <time>2017-03-11T16:12:56Z</time>
      </trkpt>
      <trkpt lat="49.09958" lon="2.08192">
        <ele>85</ele>
        <time>2017-03-11T16:13:07Z</time>
      </trkpt>
      <trkpt lat="49.09947" lon="2.08249">
        <ele>85</ele>
        <time>2017-03-11T16:13:18Z</time>
      </trkpt>
      <trkpt lat="49.09935" lon="2.08306">
        <ele>84</ele>
        <time>2017-03-11T16:13:30Z</time>
      </trkpt>
      <trkpt lat="49.09912" lon="2.08357">
        <ele>84</ele>
        <time>2017-03-11T16:13:42Z</time>
      </trkpt>
      <trkpt lat="49.09886" lon="2.08406">
        <ele>85</ele>
        <time>2017-03-11T16:13:57Z</time>
      </trkpt>
      <trkpt lat="49.09867" lon="2.08458">
        <ele>86</ele>
        <time>2017-03-11T16:14:12Z</time>
      </trkpt>
      <trkpt lat="49.09845" lon="2.08515">
        <ele>86</ele>
        <time>2017-03-11T16:14:24Z</time>
      </trkpt>
      <trkpt lat="49.09828" lon="2.08575">
        <ele>85</ele>
        <time>2017-03-11T16:14:35Z</time>
      </trkpt>
      <trkpt lat="49.09807" lon="2.08635">
        <ele>84</ele>
        <time>2017-03-11T16:14:46Z</time>
      </trkpt>
      <trkpt lat="49.09781" lon="2.08685">
        <ele>82</ele>
        <time>2017-03-11T16:14:58Z</time>
      </trkpt>
      <trkpt lat="49.09756" lon="2.08731">
        <ele>82</ele>
        <time>2017-03-11T16:15:13Z</time>
      </trkpt>
      <trkpt lat="49.0974" lon="2.0879">
        <ele>84</ele>
        <time>2017-03-11T16:18:20Z</time>
      </trkpt>
      <trkpt lat="49.09724" lon="2.08859">
        <ele>85</ele>
        <time>2017-03-11T16:18:46Z</time>
      </trkpt>
      <trkpt lat="49.09709" lon="2.0892">
        <ele>86</ele>
        <time>2017-03-11T16:19:07Z</time>
      </trkpt>
      <trkpt lat="49.0969" lon="2.08974">
        <ele>87</ele>
        <time>2017-03-11T16:19:24Z</time>
      </trkpt>
      <trkpt lat="49.09672" lon="2.09027">
        <ele>88</ele>
        <time>2017-03-11T16:19:41Z</time>
      </trkpt>
      <trkpt lat="49.09653" lon="2.09082">
        <ele>90</ele>
        <time>2017-03-11T16:19:59Z</time>
      </trkpt>
      <trkpt lat="49.0963" lon="2.09133">
        <ele>91</ele>
        <time>2017-03-11T16:20:17Z</time>
      </trkpt>
      <trkpt lat="49.09603" lon="2.09179">
        <ele>93</ele>
        <time>2017-03-11T16:20:37Z</time>
      </trkpt>
      <trkpt lat="49.09583" lon="2.0923">
        <ele>95</ele>
        <time>2017-03-11T16:20:58Z</time>
      </trkpt>
      <trkpt lat="49.09564" lon="2.09281">
        <ele>97</ele>
        <time>2017-03-11T16:21:19Z</time>
      </trkpt>
      <trkpt lat="49.09549" lon="2.09338">
        <ele>99</ele>
        <time>2017-03-11T16:21:43Z</time>
      </trkpt>
      <trkpt lat="49.09539" lon="2.09398">
        <ele>101</ele>
        <time>2017-03-11T16:22:05Z</time>
      </trkpt>
      <trkpt lat="49.09528" lon="2.09458">
        <ele>102</ele>
        <time>2017-03-11T16:22:26Z</time>
      </trkpt>
      <trkpt lat="49.09516" lon="2.09516">
        <ele>103</ele>
        <time>2017-03-11T16:22:46Z</time>
      </trkpt>
      <trkpt lat="49.09483" lon="2.09545">
        <ele>105</ele>
        <time>2017-03-11T16:23:03Z</time>
      </trkpt>
      <trkpt lat="49.0944" lon="2.09547">
        <ele>105</ele>
        <time>2017-03-11T16:23:16Z</time>
      </trkpt>
      <trkpt lat="49.09399" lon="2.09568">
        <ele>106</ele>
        <time>2017-03-11T16:23:27Z</time>
      </trkpt>
      <trkpt lat="49.09359" lon="2.09594">
        <ele>106</ele>
        <time>2017-03-11T16:23:36Z</time>
      </trkpt>
      <trkpt lat="49.09323" lon="2.09623">
        <ele>106</ele>
        <time>2017-03-11T16:23:44Z</time>
      </trkpt>
      <trkpt lat="49.09291" lon="2.09661">
        <ele>105</ele>
        <time>2017-03-11T16:23:54Z</time>
      </trkpt>
      <trkpt lat="49.09257" lon="2.09693">
        <ele>104</ele>
        <time>2017-03-11T16:24:04Z</time>
      </trkpt>
      <trkpt lat="49.09217" lon="2.09708">
        <ele>104</ele>
        <time>2017-03-11T16:24:12Z</time>
      </trkpt>
      <trkpt lat="49.09173" lon="2.0972">
        <ele>103</ele>
        <time>2017-03-11T16:24:20Z</time>
      </trkpt>
      <trkpt lat="49.09134" lon="2.09739">
        <ele>102</ele>
        <time>2017-03-11T16:24:29Z</time>
      </trkpt>
      <trkpt lat="49.09096" lon="2.09757">
        <ele>102</ele>
        <time>2017-03-11T16:24:39Z</time>
      </trkpt>
      <trkpt lat="49.09058" lon="2.09777">
        <ele>101</ele>
        <time>2017-03-11T16:24:49Z</time>
      </trkpt>
      <trkpt lat="49.09016" lon="2.09797">
        <ele>101</ele>
        <time>2017-03-11T16:24:58Z</time>
      </trkpt>
      <trkpt lat="49.08972" lon="2.09811">
        <ele>101</ele>
        <time>2017-03-11T16:25:06Z</time>
      </trkpt>
      <trkpt lat="49.08929" lon="2.09822">
        <ele>101</ele>
        <time>2017-03-11T16:25:14Z</time>
      </trkpt>
      <trkpt lat="49.08885" lon="2.09832">
        <ele>100</ele>
        <time>2017-03-11T16:25:22Z</time>
      </trkpt>
      <trkpt lat="49.08841" lon="2.09843">
        <ele>99</ele>
        <time>2017-03-11T16:25:30Z</time>
      </trkpt>
      <trkpt lat="49.08802" lon="2.09864">
        <ele>97</ele>
        <time>2017-03-11T16:25:38Z</time>
      </trkpt>
      <trkpt lat="49.08771" lon="2.09904">
        <ele>96</ele>
        <time>2017-03-11T16:25:45Z</time>
      </trkpt>
      <trkpt lat="49.08738" lon="2.09952">
        <ele>94</ele>
        <time>2017-03-11T16:25:52Z</time>
      </trkpt>
      <trkpt lat="49.08734" lon="2.10014">
        <ele>93</ele>
        <time>2017-03-11T16:25:59Z</time>
      </trkpt>
      <trkpt lat="49.08748" lon="2.10072">
        <ele>93</ele>
        <time>2017-03-11T16:26:07Z</time>
      </trkpt>
      <trkpt lat="49.08759" lon="2.10131">
        <ele>92</ele>
        <time>2017-03-11T16:26:16Z</time>
      </trkpt>
      <trkpt lat="49.08722" lon="2.10159">
        <ele>91</ele>
        <time>2017-03-11T16:26:23Z</time>
      </trkpt>
      <trkpt lat="49.08683" lon="2.10176">
        <ele>89</ele>
        <time>2017-03-11T16:26:29Z</time>
      </trkpt>
      <trkpt lat="49.08642" lon="2.10196">
        <ele>88</ele>
        <time>2017-03-11T16:26:35Z</time>
      </trkpt>
      <trkpt lat="49.08604" lon="2.10227">
        <ele>86</ele>
        <time>2017-03-11T16:26:41Z</time>
      </trkpt>
      <trkpt lat="49.08566" lon="2.10259">
        <ele>84</ele>
        <time>2017-03-11T16:26:48Z</time>
      </trkpt>
      <trkpt lat="49.0853" lon="2.10288">
        <ele>84</ele>
        <time>2017-03-11T16:26:57Z</time>
      </trkpt>
      <trkpt lat="49.08495" lon="2.1032">
        <ele>84</ele>
        <time>2017-03-11T16:27:06Z</time>
      </trkpt>
      <trkpt lat="49.08461" lon="2.10354">
        <ele>84</ele>
        <time>2017-03-11T16:27:20Z</time>
      </trkpt>
      <trkpt lat="49.08428" lon="2.1039">
        <ele>85</ele>
        <time>2017-03-11T16:27:33Z</time>
      </trkpt>
      <trkpt lat="49.08391" lon="2.10422">
        <ele>86</ele>
        <time>2017-03-11T16:27:47Z</time>
      </trkpt>
      <trkpt lat="49.08359" lon="2.10454">
        <ele>87</ele>
        <time>2017-03-11T16:27:59Z</time>
      </trkpt>
      <trkpt lat="49.08326" lon="2.10488">
        <ele>89</ele>
        <time>2017-03-11T16:28:11Z</time>
      </trkpt>
      <trkpt lat="49.08292" lon="2.10529">
        <ele>90</ele>
        <time>2017-03-11T16:28:27Z</time>
      </trkpt>
      <trkpt lat="49.08258" lon="2.10565">
        <ele>92</ele>
        <time>2017-03-11T16:28:41Z</time>
      </trkpt>
      <trkpt lat="49.08224" lon="2.10599">
        <ele>93</ele>
        <time>2017-03-11T16:28:53Z</time>
      </trkpt>
      <trkpt lat="49.08188" lon="2.10633">
        <ele>94</ele>
        <time>2017-03-11T16:29:07Z</time>
      </trkpt>
      <trkpt lat="49.08155" lon="2.10667">
        <ele>95</ele>
        <time>2017-03-11T16:29:21Z</time>
      </trkpt>
      <trkpt lat="49.08122" lon="2.10698">
        <ele>95</ele>
        <time>2017-03-11T16:29:36Z</time>
      </trkpt>
      <trkpt lat="49.08087" lon="2.10725">
        <ele>96</ele>
        <time>2017-03-11T16:29:50Z</time>
      </trkpt>
      <trkpt lat="49.0805" lon="2.10753">
        <ele>97</ele>
        <time>2017-03-11T16:30:03Z</time>
      </trkpt>
      <trkpt lat="49.08015" lon="2.10785">
        <ele>98</ele>
        <time>2017-03-11T16:30:15Z</time>
      </trkpt>
      <trkpt lat="49.07977" lon="2.1081">
        <ele>98</ele>
        <time>2017-03-11T16:30:26Z</time>
      </trkpt>
      <trkpt lat="49.07945" lon="2.10849">
        <ele>99</ele>
        <time>2017-03-11T16:30:41Z</time>
      </trkpt>
      <trkpt lat="49.07918" lon="2.109">
        <ele>99</ele>
        <time>2017-03-11T16:30:51Z</time>
      </trkpt>
      <trkpt lat="49.07891" lon="2.10947">
        <ele>99</ele>
        <time>2017-03-11T16:30:59Z</time>
      </trkpt>
      <trkpt lat="49.07863" lon="2.10999">
        <ele>98</ele>
        <time>2017-03-11T16:31:09Z</time>
      </trkpt>
      <trkpt lat="49.07836" lon="2.11049">
        <ele>98</ele>
        <time>2017-03-11T16:31:20Z</time>
      </trkpt>
      <trkpt lat="49.07808" lon="2.11101">
        <ele>98</ele>
        <time>2017-03-11T16:31:29Z</time>
      </trkpt>
      <trkpt lat="49.0778" lon="2.11151">
        <ele>98</ele>
        <time>2017-03-11T16:31:37Z</time>
      </trkpt>
      <trkpt lat="49.07752" lon="2.11194">
        <ele>97</ele>
        <time>2017-03-11T16:31:50Z</time>
      </trkpt>
      <trkpt lat="49.07722" lon="2.11233">
        <ele>97</ele>
        <time>2017-03-11T16:32:01Z</time>
      </trkpt>
      <trkpt lat="49.07703" lon="2.11281">
        <ele>97</ele>
        <time>2017-03-11T16:32:15Z</time>
      </trkpt>
      <trkpt lat="49.07685" lon="2.11316">
        <ele>97</ele>
        <time>2017-03-11T16:32:26Z</time>
      </trkpt>
      <trkpt lat="49.07643" lon="2.11325">
        <ele>97</ele>
        <time>2017-03-11T16:32:36Z</time>
      </trkpt>
      <trkpt lat="49.07599" lon="2.11322">
        <ele>97</ele>
        <time>2017-03-11T16:32:46Z</time>
      </trkpt>
      <trkpt lat="49.07557" lon="2.11304">
        <ele>97</ele>
        <time>2017-03-11T16:33:00Z</time>
      </trkpt>
      <trkpt lat="49.07519" lon="2.11271">
        <ele>96</ele>
        <time>2017-03-11T16:33:10Z</time>
      </trkpt>
      <trkpt lat="49.07486" lon="2.11235">
        <ele>96</ele>
        <time>2017-03-11T16:33:17Z</time>
      </trkpt>
      <trkpt lat="49.07452" lon="2.11199">
        <ele>95</ele>
        <time>2017-03-11T16:33:26Z</time>
      </trkpt>
      <trkpt lat="49.07417" lon="2.11163">
        <ele>94</ele>
        <time>2017-03-11T16:33:36Z</time>
      </trkpt>
      <trkpt lat="49.07381" lon="2.11125">
        <ele>92</ele>
        <time>2017-03-11T16:33:44Z</time>
      </trkpt>
      <trkpt lat="49.07347" lon="2.11091">
        <ele>91</ele>
        <time>2017-03-11T16:33:52Z</time>
      </trkpt>
      <trkpt lat="49.07312" lon="2.11055">
        <ele>90</ele>
        <time>2017-03-11T16:34:00Z</time>
      </trkpt>
      <trkpt lat="49.07277" lon="2.11025">
        <ele>89</ele>
        <time>2017-03-11T16:34:06Z</time>
      </trkpt>
      <trkpt lat="49.07244" lon="2.10986">
        <ele>87</ele>
        <time>2017-03-11T16:34:19Z</time>
      </trkpt>
      <trkpt lat="49.07209" lon="2.10946">
        <ele>85</ele>
        <time>2017-03-11T16:34:34Z</time>
      </trkpt>
      <trkpt lat="49.07172" lon="2.10909">
        <ele>83</ele>
        <time>2017-03-11T16:34:42Z</time>
      </trkpt>
      <trkpt lat="49.07134" lon="2.10884">
        <ele>81</ele>
        <time>2017-03-11T16:34:49Z</time>
      </trkpt>
      <trkpt lat="49.0709" lon="2.10862">
        <ele>79</ele>
        <time>2017-03-11T16:34:57Z</time>
      </trkpt>
      <trkpt lat="49.07046" lon="2.10851">
        <ele>77</ele>
        <time>2017-03-11T16:35:05Z</time>
      </trkpt>
      <trkpt lat="49.07003" lon="2.10839">
        <ele>76</ele>
        <time>2017-03-11T16:35:13Z</time>
      </trkpt>
      <trkpt lat="49.06964" lon="2.10826">
        <ele>75</ele>
        <time>2017-03-11T16:35:21Z</time>
      </trkpt>
      <trkpt lat="49.06921" lon="2.10819">
        <ele>74</ele>
        <time>2017-03-11T16:35:31Z</time>
      </trkpt>
      <trkpt lat="49.06884" lon="2.10839">
        <ele>73</ele>
        <time>2017-03-11T16:35:40Z</time>
      </trkpt>
      <trkpt lat="49.06846" lon="2.10859">
        <ele>71</ele>
        <time>2017-03-11T16:35:49Z</time>
      </trkpt>
      <trkpt lat="49.06808" lon="2.10876">
        <ele>69</ele>
        <time>2017-03-11T16:35:57Z</time>
      </trkpt>
      <trkpt lat="49.06768" lon="2.10897">
        <ele>65</ele>
        <time>2017-03-11T16:36:05Z</time>
      </trkpt>
      <trkpt lat="49.06726" lon="2.10916">
        <ele>62</ele>
        <time>2017-03-11T16:36:12Z</time>
      </trkpt>
      <trkpt lat="49.06689" lon="2.10912">
        <ele>62</ele>
        <time>2017-03-11T16:36:20Z</time>
      </trkpt>
      <trkpt lat="49.06658" lon="2.10869">
        <ele>60</ele>
        <time>2017-03-11T16:36:29Z</time>
      </trkpt>
      <trkpt lat="49.06618" lon="2.10858">
        <ele>62</ele>
        <time>2017-03-11T16:36:38Z</time>
      </trkpt>
      <trkpt lat="49.06586" lon="2.10823">
        <ele>62</ele>
        <time>2017-03-11T16:36:54Z</time>
      </trkpt>
      <trkpt lat="49.06544" lon="2.10821">
        <ele>63</ele>
        <time>2017-03-11T16:37:11Z</time>
      </trkpt>
      <trkpt lat="49.06501" lon="2.10814">
        <ele>63</ele>
        <time>2017-03-11T16:37:32Z</time>
      </trkpt>
      <trkpt lat="49.06459" lon="2.10794">
        <ele>62</ele>
        <time>2017-03-11T16:37:42Z</time>
      </trkpt>
      <trkpt lat="49.06419" lon="2.10777">
        <ele>59</ele>
        <time>2017-03-11T16:37:50Z</time>
      </trkpt>
      <trkpt lat="49.06373" lon="2.10757">
        <ele>57</ele>
        <time>2017-03-11T16:38:03Z</time>
      </trkpt>
      <trkpt lat="49.06331" lon="2.10735">
        <ele>57</ele>
        <time>2017-03-11T16:38:11Z</time>
      </trkpt>
      <trkpt lat="49.0629" lon="2.10699">
        <ele>58</ele>
        <time>2017-03-11T16:38:25Z</time>
      </trkpt>
      <trkpt lat="49.06249" lon="2.10672">
        <ele>59</ele>
        <time>2017-03-11T16:38:38Z</time>
      </trkpt>
      <trkpt lat="49.06207" lon="2.10656">
        <ele>60</ele>
        <time>2017-03-11T16:38:48Z</time>
      </trkpt>
      <trkpt lat="49.06174" lon="2.10688">
        <ele>60</ele>
        <time>2017-03-11T16:39:01Z</time>
      </trkpt>
      <trkpt lat="49.06138" lon="2.10721">
        <ele>59</ele>
        <time>2017-03-11T16:39:21Z</time>
      </trkpt>
      <trkpt lat="49.06101" lon="2.10765">
        <ele>55</ele>
        <time>2017-03-11T16:39:39Z</time>
      </trkpt>
      <trkpt lat="49.06066" lon="2.10804">
        <ele>54</ele>
        <time>2017-03-11T16:39:50Z</time>
      </trkpt>
      <trkpt lat="49.06015" lon="2.1084">
        <ele>53</ele>
        <time>2017-03-11T16:40:16Z</time>
      </trkpt>
      <trkpt lat="49.06" lon="2.10889">
        <ele>61</ele>
        <time>2017-03-11T16:40:44Z</time>
      </trkpt>
      <trkpt lat="49.05974" lon="2.10901">
        <ele>63</ele>
        <time>2017-03-11T16:41:08Z</time>
      </trkpt>
      <trkpt lat="49.05933" lon="2.10888">
        <ele>62</ele>
        <time>2017-03-11T16:41:24Z</time>
      </trkpt>
      <trkpt lat="49.05893" lon="2.1088">
        <ele>63</ele>
        <time>2017-03-11T16:41:37Z</time>
      </trkpt>
      <trkpt lat="49.05851" lon="2.10883">
        <ele>64</ele>
        <time>2017-03-11T16:41:49Z</time>
      </trkpt>
      <trkpt lat="49.0581" lon="2.10892">
        <ele>64</ele>
        <time>2017-03-11T16:41:59Z</time>
      </trkpt>
      <trkpt lat="49.05767" lon="2.10889">
        <ele>65</ele>
        <time>2017-03-11T16:42:11Z</time>
      </trkpt>
      <trkpt lat="49.05731" lon="2.10868">
        <ele>65</ele>
        <time>2017-03-11T16:42:25Z</time>
      </trkpt>
      <trkpt lat="49.05687" lon="2.10853">
        <ele>64</ele>
        <time>2017-03-11T16:42:37Z</time>
      </trkpt>
      <trkpt lat="49.05649" lon="2.10842">
        <ele>62</ele>
        <time>2017-03-11T16:42:45Z</time>
      </trkpt>
      <trkpt lat="49.05608" lon="2.10831">
        <ele>60</ele>
        <time>2017-03-11T16:42:53Z</time>
      </trkpt>
      <trkpt lat="49.05566" lon="2.10818">
        <ele>58</ele>
        <time>2017-03-11T16:43:03Z</time>
      </trkpt>
      <trkpt lat="49.05524" lon="2.10805">
        <ele>49</ele>
        <time>2017-03-11T16:43:15Z</time>
      </trkpt>
      <trkpt lat="49.05485" lon="2.10781">
        <ele>41</ele>
        <time>2017-03-11T16:43:23Z</time>
      </trkpt>
      <trkpt lat="49.05451" lon="2.1075">
        <ele>37</ele>
        <time>2017-03-11T16:43:30Z</time>
      </trkpt>
      <trkpt lat="49.05416" lon="2.10716">
        <ele>34</ele>
        <time>2017-03-11T16:43:37Z</time>
      </trkpt>
      <trkpt lat="49.05383" lon="2.10683">
        <ele>30</ele>
        <time>2017-03-11T16:43:47Z</time>
      </trkpt>
      <trkpt lat="49.0537" lon="2.10622">
        <ele>28</ele>
        <time>2017-03-11T16:43:54Z</time>
      </trkpt>
      <trkpt lat="49.05341" lon="2.10576">
        <ele>26</ele>
        <time>2017-03-11T16:44:01Z</time>
      </trkpt>
      <trkpt lat="49.05316" lon="2.10524">
        <ele>26</ele>
        <time>2017-03-11T16:44:18Z</time>
      </trkpt>
      <trkpt lat="49.05275" lon="2.10527">
        <ele>26</ele>
        <time>2017-03-11T16:44:28Z</time>
      </trkpt>
      <trkpt lat="49.05235" lon="2.10534">
        <ele>26</ele>
        <time>2017-03-11T16:44:36Z</time>
      </trkpt>
      <trkpt lat="49.05195" lon="2.10539">
        <ele>25</ele>
        <time>2017-03-11T16:44:46Z</time>
      </trkpt>
      <trkpt lat="49.0515" lon="2.10548">
        <ele>24</ele>
        <time>2017-03-11T16:44:55Z</time>
      </trkpt>
      <trkpt lat="49.05108" lon="2.10552">
        <ele>23</ele>
        <time>2017-03-11T16:45:04Z</time>
      </trkpt>
      <trkpt lat="49.05077" lon="2.10515">
        <ele>23</ele>
        <time>2017-03-11T16:45:15Z</time>
      </trkpt>
      <trkpt lat="49.05049" lon="2.10464">
        <ele>23</ele>
        <time>2017-03-11T16:45:25Z</time>
      </trkpt>
      <trkpt lat="49.05022" lon="2.10415">
        <ele>23</ele>
        <time>2017-03-11T16:45:34Z</time>
      </trkpt>
      <trkpt lat="49.04997" lon="2.10369">
        <ele>24</ele>
        <time>2017-03-11T16:45:46Z</time>
      </trkpt>
      <trkpt lat="49.0497" lon="2.10321">
        <ele>25</ele>
        <time>2017-03-11T16:46:13Z</time>
      </trkpt>
      <trkpt lat="49.04941" lon="2.10276">
        <ele>25</ele>
        <time>2017-03-11T16:46:21Z</time>
      </trkpt>
      <trkpt lat="49.04914" lon="2.1023">
        <ele>26</ele>
        <time>2017-03-11T16:46:31Z</time>
      </trkpt>
      <trkpt lat="49.04886" lon="2.1018">
        <ele>27</ele>
        <time>2017-03-11T16:46:44Z</time>
      </trkpt>
      <trkpt lat="49.04864" lon="2.1013">
        <ele>27</ele>
        <time>2017-03-11T16:46:53Z</time>
      </trkpt>
      <trkpt lat="49.04839" lon="2.1008">
        <ele>30</ele>
        <time>2017-03-11T16:47:03Z</time>
      </trkpt>
      <trkpt lat="49.04799" lon="2.1005">
        <ele>30</ele>
        <time>2017-03-11T16:47:13Z</time>
      </trkpt>
      <trkpt lat="49.04762" lon="2.10029">
        <ele>29</ele>
        <time>2017-03-11T16:47:23Z</time>
      </trkpt>
      <trkpt lat="49.04727" lon="2.09994">
        <ele>28</ele>
        <time>2017-03-11T16:47:36Z</time>
      </trkpt>
      <trkpt lat="49.04682" lon="2.09984">
        <ele>26</ele>
        <time>2017-03-11T16:47:51Z</time>
      </trkpt>
      <trkpt lat="49.04644" lon="2.10002">
        <ele>24</ele>
        <time>2017-03-11T16:48:01Z</time>
      </trkpt>
      <trkpt lat="49.04604" lon="2.09996">
        <ele>23</ele>
        <time>2017-03-11T16:48:14Z</time>
      </trkpt>
      <trkpt lat="49.04566" lon="2.09972">
        <ele>23</ele>
        <time>2017-03-11T16:48:24Z</time>
      </trkpt>
      <trkpt lat="49.04526" lon="2.09945">
        <ele>23</ele>
        <time>2017-03-11T16:48:36Z</time>
      </trkpt>
      <trkpt lat="49.04487" lon="2.09919">
        <ele>24</ele>
        <time>2017-03-11T16:48:46Z</time>
      </trkpt>
      <trkpt lat="49.04454" lon="2.09883">
        <ele>24</ele>
        <time>2017-03-11T16:48:59Z</time>
      </trkpt>
      <trkpt lat="49.04416" lon="2.09857">
        <ele>24</ele>
        <time>2017-03-11T16:49:14Z</time>
      </trkpt>
      <trkpt lat="49.04377" lon="2.09836">
        <ele>24</ele>
        <time>2017-03-11T16:49:26Z</time>
      </trkpt>
      <trkpt lat="49.04336" lon="2.09812">
        <ele>24</ele>
        <time>2017-03-11T16:49:37Z</time>
      </trkpt>
      <trkpt lat="49.04294" lon="2.09789">
        <ele>24</ele>
        <time>2017-03-11T16:49:50Z</time>
      </trkpt>
      <trkpt lat="49.04254" lon="2.09771">
        <ele>24</ele>
        <time>2017-03-11T16:49:59Z</time>
      </trkpt>
      <trkpt lat="49.04216" lon="2.09746">
        <ele>24</ele>
        <time>2017-03-11T16:50:09Z</time>
      </trkpt>
      <trkpt lat="49.04174" lon="2.09721">
        <ele>25</ele>
        <time>2017-03-11T16:50:18Z</time>
      </trkpt>
      <trkpt lat="49.04136" lon="2.09699">
        <ele>25</ele>
        <time>2017-03-11T16:50:27Z</time>
      </trkpt>
      <trkpt lat="49.04097" lon="2.09676">
        <ele>25</ele>
        <time>2017-03-11T16:50:36Z</time>
      </trkpt>
      <trkpt lat="49.04058" lon="2.09658">
        <ele>25</ele>
        <time>2017-03-11T16:50:44Z</time>
      </trkpt>
      <trkpt lat="49.04017" lon="2.09645">
        <ele>24</ele>
        <time>2017-03-11T16:50:54Z</time>
      </trkpt>
      <trkpt lat="49.03975" lon="2.09639">
        <ele>24</ele>
        <time>2017-03-11T16:51:09Z</time>
      </trkpt>
      <trkpt lat="49.03934" lon="2.09632">
        <ele>23</ele>
        <time>2017-03-11T16:51:18Z</time>
      </trkpt>
      <trkpt lat="49.03894" lon="2.09623">
        <ele>23</ele>
        <time>2017-03-11T16:51:27Z</time>
      </trkpt>
      <trkpt lat="49.03853" lon="2.09615">
        <ele>23</ele>
        <time>2017-03-11T16:51:37Z</time>
      </trkpt>
      <trkpt lat="49.03811" lon="2.09607">
        <ele>23</ele>
        <time>2017-03-11T16:51:48Z</time>
      </trkpt>
      <trkpt lat="49.03772" lon="2.09596">
        <ele>23</ele>
        <time>2017-03-11T16:52:00Z</time>
      </trkpt>
      <trkpt lat="49.03727" lon="2.09581">
        <ele>23</ele>
        <time>2017-03-11T16:52:28Z</time>
      </trkpt>
      <trkpt lat="49.03689" lon="2.09557">
        <ele>23</ele>
        <time>2017-03-11T16:52:40Z</time>
      </trkpt>
      <trkpt lat="49.03652" lon="2.09524">
        <ele>23</ele>
        <time>2017-03-11T16:52:52Z</time>
      </trkpt>
      <trkpt lat="49.03617" lon="2.09495">
        <ele>23</ele>
        <time>2017-03-11T16:53:04Z</time>
      </trkpt>
      <trkpt lat="49.03579" lon="2.09465">
        <ele>23</ele>
        <time>2017-03-11T16:53:15Z</time>
      </trkpt>
      <trkpt lat="49.03536" lon="2.09435">
        <ele>23</ele>
        <time>2017-03-11T16:53:26Z</time>
      </trkpt>
      <trkpt lat="49.03494" lon="2.09409">
        <ele>23</ele>
        <time>2017-03-11T16:53:36Z</time>
      </trkpt>
      <trkpt lat="49.03464" lon="2.09365">
        <ele>23</ele>
        <time>2017-03-11T16:53:48Z</time>
      </trkpt>
      <trkpt lat="49.03424" lon="2.09333">
        <ele>23</ele>
        <time>2017-03-11T16:54:01Z</time>
      </trkpt>
      <trkpt lat="49.03394" lon="2.09292">
        <ele>23</ele>
        <time>2017-03-11T16:54:14Z</time>
      </trkpt>
      <trkpt lat="49.03357" lon="2.09251">
        <ele>23</ele>
        <time>2017-03-11T16:54:25Z</time>
      </trkpt>
      <trkpt lat="49.03325" lon="2.09205">
        <ele>26</ele>
        <time>2017-03-11T16:54:41Z</time>
      </trkpt>
      <trkpt lat="49.03289" lon="2.09178">
        <ele>26</ele>
        <time>2017-03-11T16:54:57Z</time>
      </trkpt>
      <trkpt lat="49.0325" lon="2.09163">
        <ele>27</ele>
        <time>2017-03-11T16:55:17Z</time>
      </trkpt>
      <trkpt lat="49.03212" lon="2.09143">
        <ele>27</ele>
        <time>2017-03-11T16:55:36Z</time>
      </trkpt>
      <trkpt lat="49.03203" lon="2.09092">
        <ele>31</ele>
        <time>2017-03-11T16:55:55Z</time>
      </trkpt>
      <trkpt lat="49.03209" lon="2.09033">
        <ele>37</ele>
        <time>2017-03-11T16:56:18Z</time>
      </trkpt>
      <trkpt lat="49.03247" lon="2.09014">
        <ele>39</ele>
        <time>2017-03-11T16:56:43Z</time>
      </trkpt>
      <trkpt lat="49.03258" lon="2.08975">
        <ele>40</ele>
        <time>2017-03-11T16:57:03Z</time>
      </trkpt>
      <trkpt lat="49.03256" lon="2.08918">
        <ele>40</ele>
        <time>2017-03-11T16:57:21Z</time>
      </trkpt>
      <trkpt lat="49.03284" lon="2.08876">
        <ele>41</ele>
        <time>2017-03-11T16:57:34Z</time>
      </trkpt>
      <trkpt lat="49.033" lon="2.08819">
        <ele>41</ele>
        <time>2017-03-11T16:57:48Z</time>
      </trkpt>
      <trkpt lat="49.03312" lon="2.08759">
        <ele>42</ele>
        <time>2017-03-11T16:58:01Z</time>
      </trkpt>
      <trkpt lat="49.03341" lon="2.08741">
        <ele>43</ele>
        <time>2017-03-11T16:58:15Z</time>
      </trkpt>
      <trkpt lat="49.03382" lon="2.08738">
        <ele>43</ele>
        <time>2017-03-11T16:58:29Z</time>
      </trkpt>
      <trkpt lat="49.03413" lon="2.0869">
        <ele>43</ele>
        <time>2017-03-11T16:58:42Z</time>
      </trkpt>
      <trkpt lat="49.03435" lon="2.08639">
        <ele>44</ele>
        <time>2017-03-11T16:59:00Z</time>
      </trkpt>
      <trkpt lat="49.03471" lon="2.08599">
        <ele>45</ele>
        <time>2017-03-11T16:59:15Z</time>
      </trkpt>
      <trkpt lat="49.035" lon="2.0856">
        <ele>45</ele>
        <time>2017-03-11T16:59:30Z</time>
      </trkpt>
      <trkpt lat="49.03531" lon="2.0852">
        <ele>46</ele>
        <time>2017-03-11T16:59:43Z</time>
      </trkpt>
      <trkpt lat="49.03555" lon="2.08473">
        <ele>46</ele>
        <time>2017-03-11T16:59:57Z</time>
      </trkpt>
      <trkpt lat="49.0358" lon="2.08422">
        <ele>46</ele>
        <time>2017-03-11T17:00:15Z</time>
      </trkpt>
      <trkpt lat="49.03606" lon="2.08374">
        <ele>47</ele>
        <time>2017-03-11T17:00:28Z</time>
      </trkpt>
      <trkpt lat="49.0363" lon="2.08322">
        <ele>47</ele>
        <time>2017-03-11T17:00:39Z</time>
      </trkpt>
      <trkpt lat="49.03664" lon="2.08275">
        <ele>47</ele>
        <time>2017-03-11T17:00:51Z</time>
      </trkpt>
      <trkpt lat="49.037" lon="2.08227">
        <ele>48</ele>
        <time>2017-03-11T17:01:21Z</time>
      </trkpt>
      <trkpt lat="49.0373" lon="2.08168">
        <ele>48</ele>
        <time>2017-03-11T17:01:43Z</time>
      </trkpt>
      <trkpt lat="49.03744" lon="2.08121">
        <ele>48</ele>
        <time>2017-03-11T17:01:57Z</time>
      </trkpt>
      <trkpt lat="49.03709" lon="2.08105">
        <ele>48</ele>
        <time>2017-03-11T17:02:13Z</time>
      </trkpt>
      <trkpt lat="49.03686" lon="2.0805">
        <ele>47</ele>
        <time>2017-03-11T17:02:24Z</time>
      </trkpt>
      <trkpt lat="49.03669" lon="2.07999">
        <ele>47</ele>
        <time>2017-03-11T17:02:36Z</time>
      </trkpt>
      <trkpt lat="49.03671" lon="2.07942">
        <ele>46</ele>
        <time>2017-03-11T17:02:47Z</time>
      </trkpt>
      <trkpt lat="49.03651" lon="2.07887">
        <ele>46</ele>
        <time>2017-03-11T17:02:56Z</time>
      </trkpt>
      <trkpt lat="49.03626" lon="2.0782">
        <ele>45</ele>
        <time>2017-03-11T17:03:26Z</time>
      </trkpt>
      <trkpt lat="49.03604" lon="2.07751">
        <ele>44</ele>
        <time>2017-03-11T17:03:38Z</time>
      </trkpt>
      <trkpt lat="49.03597" lon="2.0769">
        <ele>44</ele>
        <time>2017-03-11T17:03:48Z</time>
      </trkpt>
      <trkpt lat="49.03631" lon="2.0764">
        <ele>44</ele>
        <time>2017-03-11T17:04:02Z</time>
      </trkpt>
      <trkpt lat="49.03665" lon="2.07593">
        <ele>44</ele>
        <time>2017-03-11T17:04:13Z</time>
      </trkpt>
      <trkpt lat="49.03641" lon="2.07543">
        <ele>44</ele>
        <time>2017-03-11T17:04:34Z</time>
      </trkpt>
      <trkpt lat="49.03623" lon="2.07497">
        <ele>44</ele>
        <time>2017-03-11T17:04:51Z</time>
      </trkpt>
      <trkpt lat="49.03597" lon="2.07454">
        <ele>44</ele>
        <time>2017-03-11T17:05:09Z</time>
      </trkpt>
      <trkpt lat="49.03596" lon="2.07399">
        <ele>43</ele>
        <time>2017-03-11T17:05:25Z</time>
      </trkpt>
      <trkpt lat="49.03626" lon="2.07419">
        <ele>44</ele>
        <time>2017-03-11T17:05:39Z</time>
      </trkpt>
      <trkpt lat="49.03622" lon="2.07458">
        <ele>44</ele>
        <time>2017-03-11T17:05:57Z</time>
      </trkpt>
    </trkseg>
  </trk>
</gpx>